<?xml version="1.0" encoding="UTF-8" standalone="no" ?>
<gpx xmlns="http://www.topografix.com/GPX/1/1" xmlns:xsi="http://www.w3.org/2001/XMLSchema-instance" xsi:schemaLocation="http://www.topografix.com/GPX/1/1 http://www.topografix.com/GPX/1/1/gpx.xsd" version="1.1" creator="VisuGPX - https://www.visugpx.com">
  <metadata>
    <name>Saint Pargoire-Base de Bessilles-Saint Pons de Mauchiens </name>
    <desc><![CDATA[Boucle dans les alentours de Saint Pargoire en utilisant partiellement le circuit n°3 de la base de Bessilles]]></desc>
  </metadata>
  <trk>
    <name><![CDATA[22 avr. 2016 14:59:40]]></name>
    <cmt><![CDATA[22 avr. 2016 14:59:40]]></cmt>
    <trkseg>
      <trkpt lat="43.53169" lon="3.5301">
        <ele>119</ele>
        <time>2016-04-22T12:59:41Z</time>
      </trkpt>
      <trkpt lat="43.53168" lon="3.53015">
        <ele>124</ele>
        <time>2016-04-22T13:00:23Z</time>
      </trkpt>
      <trkpt lat="43.53164" lon="3.53012">
        <ele>124</ele>
        <time>2016-04-22T13:00:56Z</time>
      </trkpt>
      <trkpt lat="43.5313" lon="3.52947">
        <ele>125</ele>
        <time>2016-04-22T13:01:11Z</time>
      </trkpt>
      <trkpt lat="43.53128" lon="3.52936">
        <ele>124</ele>
        <time>2016-04-22T13:01:12Z</time>
      </trkpt>
      <trkpt lat="43.53115" lon="3.52923">
        <ele>123</ele>
        <time>2016-04-22T13:01:15Z</time>
      </trkpt>
      <trkpt lat="43.53107" lon="3.52903">
        <ele>122</ele>
        <time>2016-04-22T13:01:19Z</time>
      </trkpt>
      <trkpt lat="43.53102" lon="3.52885">
        <ele>123</ele>
        <time>2016-04-22T13:01:21Z</time>
      </trkpt>
      <trkpt lat="43.53098" lon="3.52883">
        <ele>124</ele>
        <time>2016-04-22T13:01:22Z</time>
      </trkpt>
      <trkpt lat="43.53093" lon="3.52874">
        <ele>125</ele>
        <time>2016-04-22T13:01:24Z</time>
      </trkpt>
      <trkpt lat="43.53094" lon="3.52867">
        <ele>126</ele>
        <time>2016-04-22T13:01:26Z</time>
      </trkpt>
      <trkpt lat="43.53104" lon="3.5286">
        <ele>125</ele>
        <time>2016-04-22T13:01:27Z</time>
      </trkpt>
      <trkpt lat="43.53105" lon="3.52853">
        <ele>125</ele>
        <time>2016-04-22T13:01:28Z</time>
      </trkpt>
      <trkpt lat="43.5311" lon="3.52849">
        <ele>123</ele>
        <time>2016-04-22T13:01:30Z</time>
      </trkpt>
      <trkpt lat="43.53114" lon="3.52843">
        <ele>123</ele>
        <time>2016-04-22T13:01:32Z</time>
      </trkpt>
      <trkpt lat="43.53174" lon="3.5278">
        <ele>116</ele>
        <time>2016-04-22T13:01:53Z</time>
      </trkpt>
      <trkpt lat="43.53177" lon="3.52777">
        <ele>115</ele>
        <time>2016-04-22T13:01:55Z</time>
      </trkpt>
      <trkpt lat="43.53183" lon="3.52777">
        <ele>115</ele>
        <time>2016-04-22T13:01:57Z</time>
      </trkpt>
      <trkpt lat="43.53185" lon="3.52779">
        <ele>114</ele>
        <time>2016-04-22T13:01:59Z</time>
      </trkpt>
      <trkpt lat="43.53183" lon="3.52784">
        <ele>114</ele>
        <time>2016-04-22T13:02:00Z</time>
      </trkpt>
      <trkpt lat="43.53185" lon="3.52793">
        <ele>113</ele>
        <time>2016-04-22T13:02:03Z</time>
      </trkpt>
      <trkpt lat="43.53186" lon="3.52804">
        <ele>113</ele>
        <time>2016-04-22T13:02:06Z</time>
      </trkpt>
      <trkpt lat="43.53187" lon="3.52817">
        <ele>113</ele>
        <time>2016-04-22T13:02:09Z</time>
      </trkpt>
      <trkpt lat="43.5319" lon="3.52835">
        <ele>116</ele>
        <time>2016-04-22T13:02:13Z</time>
      </trkpt>
      <trkpt lat="43.53202" lon="3.5287">
        <ele>121</ele>
        <time>2016-04-22T13:02:23Z</time>
      </trkpt>
      <trkpt lat="43.53203" lon="3.52878">
        <ele>120</ele>
        <time>2016-04-22T13:02:25Z</time>
      </trkpt>
      <trkpt lat="43.53204" lon="3.52882">
        <ele>120</ele>
        <time>2016-04-22T13:02:26Z</time>
      </trkpt>
      <trkpt lat="43.5321" lon="3.52906">
        <ele>120</ele>
        <time>2016-04-22T13:02:32Z</time>
      </trkpt>
      <trkpt lat="43.53222" lon="3.52933">
        <ele>121</ele>
        <time>2016-04-22T13:02:39Z</time>
      </trkpt>
      <trkpt lat="43.53237" lon="3.52991">
        <ele>119</ele>
        <time>2016-04-22T13:02:55Z</time>
      </trkpt>
      <trkpt lat="43.53236" lon="3.53012">
        <ele>120</ele>
        <time>2016-04-22T13:03:00Z</time>
      </trkpt>
      <trkpt lat="43.53233" lon="3.53026">
        <ele>119</ele>
        <time>2016-04-22T13:03:02Z</time>
      </trkpt>
      <trkpt lat="43.53231" lon="3.53043">
        <ele>120</ele>
        <time>2016-04-22T13:03:05Z</time>
      </trkpt>
      <trkpt lat="43.53231" lon="3.53067">
        <ele>119</ele>
        <time>2016-04-22T13:03:09Z</time>
      </trkpt>
      <trkpt lat="43.53236" lon="3.53075">
        <ele>120</ele>
        <time>2016-04-22T13:03:11Z</time>
      </trkpt>
      <trkpt lat="43.53243" lon="3.53091">
        <ele>122</ele>
        <time>2016-04-22T13:03:15Z</time>
      </trkpt>
      <trkpt lat="43.53237" lon="3.53122">
        <ele>125</ele>
        <time>2016-04-22T13:03:23Z</time>
      </trkpt>
      <trkpt lat="43.53234" lon="3.53125">
        <ele>124</ele>
        <time>2016-04-22T13:03:24Z</time>
      </trkpt>
      <trkpt lat="43.53216" lon="3.5315">
        <ele>126</ele>
        <time>2016-04-22T13:03:30Z</time>
      </trkpt>
      <trkpt lat="43.53215" lon="3.53155">
        <ele>125</ele>
        <time>2016-04-22T13:03:31Z</time>
      </trkpt>
      <trkpt lat="43.53213" lon="3.53158">
        <ele>125</ele>
        <time>2016-04-22T13:03:32Z</time>
      </trkpt>
      <trkpt lat="43.53208" lon="3.53168">
        <ele>125</ele>
        <time>2016-04-22T13:03:34Z</time>
      </trkpt>
      <trkpt lat="43.53206" lon="3.53171">
        <ele>126</ele>
        <time>2016-04-22T13:03:35Z</time>
      </trkpt>
      <trkpt lat="43.53197" lon="3.53193">
        <ele>128</ele>
        <time>2016-04-22T13:03:39Z</time>
      </trkpt>
      <trkpt lat="43.53182" lon="3.53229">
        <ele>128</ele>
        <time>2016-04-22T13:03:46Z</time>
      </trkpt>
      <trkpt lat="43.53172" lon="3.53254">
        <ele>126</ele>
        <time>2016-04-22T13:03:51Z</time>
      </trkpt>
      <trkpt lat="43.5317" lon="3.53259">
        <ele>126</ele>
        <time>2016-04-22T13:03:52Z</time>
      </trkpt>
      <trkpt lat="43.53166" lon="3.53267">
        <ele>126</ele>
        <time>2016-04-22T13:03:54Z</time>
      </trkpt>
      <trkpt lat="43.53164" lon="3.53271">
        <ele>126</ele>
        <time>2016-04-22T13:03:55Z</time>
      </trkpt>
      <trkpt lat="43.53163" lon="3.53276">
        <ele>126</ele>
        <time>2016-04-22T13:03:56Z</time>
      </trkpt>
      <trkpt lat="43.5315" lon="3.53314">
        <ele>125</ele>
        <time>2016-04-22T13:04:03Z</time>
      </trkpt>
      <trkpt lat="43.53152" lon="3.53322">
        <ele>125</ele>
        <time>2016-04-22T13:04:05Z</time>
      </trkpt>
      <trkpt lat="43.53153" lon="3.53326">
        <ele>127</ele>
        <time>2016-04-22T13:04:07Z</time>
      </trkpt>
      <trkpt lat="43.53153" lon="3.5333">
        <ele>127</ele>
        <time>2016-04-22T13:04:08Z</time>
      </trkpt>
      <trkpt lat="43.53144" lon="3.5334">
        <ele>128</ele>
        <time>2016-04-22T13:04:09Z</time>
      </trkpt>
      <trkpt lat="43.53142" lon="3.53346">
        <ele>128</ele>
        <time>2016-04-22T13:04:10Z</time>
      </trkpt>
      <trkpt lat="43.53112" lon="3.53402">
        <ele>126</ele>
        <time>2016-04-22T13:04:19Z</time>
      </trkpt>
      <trkpt lat="43.5311" lon="3.53406">
        <ele>126</ele>
        <time>2016-04-22T13:04:20Z</time>
      </trkpt>
      <trkpt lat="43.531" lon="3.53423">
        <ele>125</ele>
        <time>2016-04-22T13:04:23Z</time>
      </trkpt>
      <trkpt lat="43.53096" lon="3.53428">
        <ele>125</ele>
        <time>2016-04-22T13:04:24Z</time>
      </trkpt>
      <trkpt lat="43.53092" lon="3.53434">
        <ele>125</ele>
        <time>2016-04-22T13:04:25Z</time>
      </trkpt>
      <trkpt lat="43.53093" lon="3.53437">
        <ele>125</ele>
        <time>2016-04-22T13:04:26Z</time>
      </trkpt>
      <trkpt lat="43.53084" lon="3.53456">
        <ele>124</ele>
        <time>2016-04-22T13:04:29Z</time>
      </trkpt>
      <trkpt lat="43.53072" lon="3.53475">
        <ele>124</ele>
        <time>2016-04-22T13:04:32Z</time>
      </trkpt>
      <trkpt lat="43.53069" lon="3.53478">
        <ele>123</ele>
        <time>2016-04-22T13:04:33Z</time>
      </trkpt>
      <trkpt lat="43.53063" lon="3.53488">
        <ele>123</ele>
        <time>2016-04-22T13:04:35Z</time>
      </trkpt>
      <trkpt lat="43.5306" lon="3.53502">
        <ele>122</ele>
        <time>2016-04-22T13:04:37Z</time>
      </trkpt>
      <trkpt lat="43.53056" lon="3.53508">
        <ele>123</ele>
        <time>2016-04-22T13:04:38Z</time>
      </trkpt>
      <trkpt lat="43.52981" lon="3.53666">
        <ele>126</ele>
        <time>2016-04-22T13:05:08Z</time>
      </trkpt>
      <trkpt lat="43.52977" lon="3.53671">
        <ele>126</ele>
        <time>2016-04-22T13:05:09Z</time>
      </trkpt>
      <trkpt lat="43.5297" lon="3.5368">
        <ele>125</ele>
        <time>2016-04-22T13:05:11Z</time>
      </trkpt>
      <trkpt lat="43.52968" lon="3.53683">
        <ele>125</ele>
        <time>2016-04-22T13:05:12Z</time>
      </trkpt>
      <trkpt lat="43.52943" lon="3.53702">
        <ele>124</ele>
        <time>2016-04-22T13:05:18Z</time>
      </trkpt>
      <trkpt lat="43.5292" lon="3.53727">
        <ele>127</ele>
        <time>2016-04-22T13:05:24Z</time>
      </trkpt>
      <trkpt lat="43.52906" lon="3.53753">
        <ele>127</ele>
        <time>2016-04-22T13:05:29Z</time>
      </trkpt>
      <trkpt lat="43.52901" lon="3.53755">
        <ele>127</ele>
        <time>2016-04-22T13:05:30Z</time>
      </trkpt>
      <trkpt lat="43.52858" lon="3.53811">
        <ele>126</ele>
        <time>2016-04-22T13:05:42Z</time>
      </trkpt>
      <trkpt lat="43.52852" lon="3.53821">
        <ele>125</ele>
        <time>2016-04-22T13:05:44Z</time>
      </trkpt>
      <trkpt lat="43.52847" lon="3.53824">
        <ele>125</ele>
        <time>2016-04-22T13:05:45Z</time>
      </trkpt>
      <trkpt lat="43.52842" lon="3.53834">
        <ele>125</ele>
        <time>2016-04-22T13:05:47Z</time>
      </trkpt>
      <trkpt lat="43.52831" lon="3.53847">
        <ele>125</ele>
        <time>2016-04-22T13:05:50Z</time>
      </trkpt>
      <trkpt lat="43.52806" lon="3.53885">
        <ele>123</ele>
        <time>2016-04-22T13:05:58Z</time>
      </trkpt>
      <trkpt lat="43.52806" lon="3.53892">
        <ele>122</ele>
        <time>2016-04-22T13:05:59Z</time>
      </trkpt>
      <trkpt lat="43.52797" lon="3.53908">
        <ele>119</ele>
        <time>2016-04-22T13:06:03Z</time>
      </trkpt>
      <trkpt lat="43.52787" lon="3.5393">
        <ele>118</ele>
        <time>2016-04-22T13:06:08Z</time>
      </trkpt>
      <trkpt lat="43.52781" lon="3.53939">
        <ele>119</ele>
        <time>2016-04-22T13:06:10Z</time>
      </trkpt>
      <trkpt lat="43.52778" lon="3.53945">
        <ele>119</ele>
        <time>2016-04-22T13:06:11Z</time>
      </trkpt>
      <trkpt lat="43.52774" lon="3.53948">
        <ele>119</ele>
        <time>2016-04-22T13:06:12Z</time>
      </trkpt>
      <trkpt lat="43.52768" lon="3.53966">
        <ele>120</ele>
        <time>2016-04-22T13:06:15Z</time>
      </trkpt>
      <trkpt lat="43.52765" lon="3.53971">
        <ele>120</ele>
        <time>2016-04-22T13:06:16Z</time>
      </trkpt>
      <trkpt lat="43.52759" lon="3.53978">
        <ele>121</ele>
        <time>2016-04-22T13:06:18Z</time>
      </trkpt>
      <trkpt lat="43.52757" lon="3.53981">
        <ele>121</ele>
        <time>2016-04-22T13:06:19Z</time>
      </trkpt>
      <trkpt lat="43.52753" lon="3.53987">
        <ele>121</ele>
        <time>2016-04-22T13:06:20Z</time>
      </trkpt>
      <trkpt lat="43.52747" lon="3.53997">
        <ele>121</ele>
        <time>2016-04-22T13:06:22Z</time>
      </trkpt>
      <trkpt lat="43.52742" lon="3.54007">
        <ele>122</ele>
        <time>2016-04-22T13:06:24Z</time>
      </trkpt>
      <trkpt lat="43.52737" lon="3.54017">
        <ele>121</ele>
        <time>2016-04-22T13:06:26Z</time>
      </trkpt>
      <trkpt lat="43.52733" lon="3.54017">
        <ele>122</ele>
        <time>2016-04-22T13:06:27Z</time>
      </trkpt>
      <trkpt lat="43.52722" lon="3.54032">
        <ele>122</ele>
        <time>2016-04-22T13:06:30Z</time>
      </trkpt>
      <trkpt lat="43.52722" lon="3.54038">
        <ele>122</ele>
        <time>2016-04-22T13:06:31Z</time>
      </trkpt>
      <trkpt lat="43.52708" lon="3.54064">
        <ele>120</ele>
        <time>2016-04-22T13:06:36Z</time>
      </trkpt>
      <trkpt lat="43.52704" lon="3.54078">
        <ele>121</ele>
        <time>2016-04-22T13:06:39Z</time>
      </trkpt>
      <trkpt lat="43.52695" lon="3.54083">
        <ele>121</ele>
        <time>2016-04-22T13:06:41Z</time>
      </trkpt>
      <trkpt lat="43.52682" lon="3.54083">
        <ele>123</ele>
        <time>2016-04-22T13:06:44Z</time>
      </trkpt>
      <trkpt lat="43.52672" lon="3.54082">
        <ele>123</ele>
        <time>2016-04-22T13:06:46Z</time>
      </trkpt>
      <trkpt lat="43.52657" lon="3.54076">
        <ele>118</ele>
        <time>2016-04-22T13:06:53Z</time>
      </trkpt>
      <trkpt lat="43.52654" lon="3.54079">
        <ele>119</ele>
        <time>2016-04-22T13:06:55Z</time>
      </trkpt>
      <trkpt lat="43.52652" lon="3.54084">
        <ele>119</ele>
        <time>2016-04-22T13:06:57Z</time>
      </trkpt>
      <trkpt lat="43.52652" lon="3.54091">
        <ele>120</ele>
        <time>2016-04-22T13:06:59Z</time>
      </trkpt>
      <trkpt lat="43.52651" lon="3.54098">
        <ele>120</ele>
        <time>2016-04-22T13:07:01Z</time>
      </trkpt>
      <trkpt lat="43.52651" lon="3.54102">
        <ele>120</ele>
        <time>2016-04-22T13:07:02Z</time>
      </trkpt>
      <trkpt lat="43.5265" lon="3.54105">
        <ele>120</ele>
        <time>2016-04-22T13:07:03Z</time>
      </trkpt>
      <trkpt lat="43.5265" lon="3.54113">
        <ele>120</ele>
        <time>2016-04-22T13:07:05Z</time>
      </trkpt>
      <trkpt lat="43.52649" lon="3.54117">
        <ele>121</ele>
        <time>2016-04-22T13:07:06Z</time>
      </trkpt>
      <trkpt lat="43.52641" lon="3.54252">
        <ele>128</ele>
        <time>2016-04-22T13:07:36Z</time>
      </trkpt>
      <trkpt lat="43.52641" lon="3.54261">
        <ele>128</ele>
        <time>2016-04-22T13:07:38Z</time>
      </trkpt>
      <trkpt lat="43.5264" lon="3.54265">
        <ele>128</ele>
        <time>2016-04-22T13:07:39Z</time>
      </trkpt>
      <trkpt lat="43.52636" lon="3.54309">
        <ele>129</ele>
        <time>2016-04-22T13:07:50Z</time>
      </trkpt>
      <trkpt lat="43.52633" lon="3.5431">
        <ele>129</ele>
        <time>2016-04-22T13:07:51Z</time>
      </trkpt>
      <trkpt lat="43.52545" lon="3.544">
        <ele>122</ele>
        <time>2016-04-22T13:08:21Z</time>
      </trkpt>
      <trkpt lat="43.52544" lon="3.54418">
        <ele>121</ele>
        <time>2016-04-22T13:08:25Z</time>
      </trkpt>
      <trkpt lat="43.52543" lon="3.54427">
        <ele>122</ele>
        <time>2016-04-22T13:08:27Z</time>
      </trkpt>
      <trkpt lat="43.52541" lon="3.54448">
        <ele>120</ele>
        <time>2016-04-22T13:08:32Z</time>
      </trkpt>
      <trkpt lat="43.5254" lon="3.54452">
        <ele>120</ele>
        <time>2016-04-22T13:08:33Z</time>
      </trkpt>
      <trkpt lat="43.52537" lon="3.54453">
        <ele>119</ele>
        <time>2016-04-22T13:08:34Z</time>
      </trkpt>
      <trkpt lat="43.52533" lon="3.54451">
        <ele>120</ele>
        <time>2016-04-22T13:08:36Z</time>
      </trkpt>
      <trkpt lat="43.52533" lon="3.54443">
        <ele>120</ele>
        <time>2016-04-22T13:08:38Z</time>
      </trkpt>
      <trkpt lat="43.52533" lon="3.54438">
        <ele>120</ele>
        <time>2016-04-22T13:08:39Z</time>
      </trkpt>
      <trkpt lat="43.52533" lon="3.54425">
        <ele>120</ele>
        <time>2016-04-22T13:08:42Z</time>
      </trkpt>
      <trkpt lat="43.52531" lon="3.54383">
        <ele>116</ele>
        <time>2016-04-22T13:08:51Z</time>
      </trkpt>
      <trkpt lat="43.52526" lon="3.54366">
        <ele>117</ele>
        <time>2016-04-22T13:08:55Z</time>
      </trkpt>
      <trkpt lat="43.52524" lon="3.54349">
        <ele>116</ele>
        <time>2016-04-22T13:08:59Z</time>
      </trkpt>
      <trkpt lat="43.52525" lon="3.54305">
        <ele>118</ele>
        <time>2016-04-22T13:09:10Z</time>
      </trkpt>
      <trkpt lat="43.52525" lon="3.54291">
        <ele>118</ele>
        <time>2016-04-22T13:09:13Z</time>
      </trkpt>
      <trkpt lat="43.52527" lon="3.54271">
        <ele>119</ele>
        <time>2016-04-22T13:09:17Z</time>
      </trkpt>
      <trkpt lat="43.52528" lon="3.54238">
        <ele>122</ele>
        <time>2016-04-22T13:09:23Z</time>
      </trkpt>
      <trkpt lat="43.52528" lon="3.54223">
        <ele>122</ele>
        <time>2016-04-22T13:09:26Z</time>
      </trkpt>
      <trkpt lat="43.52527" lon="3.54195">
        <ele>120</ele>
        <time>2016-04-22T13:09:32Z</time>
      </trkpt>
      <trkpt lat="43.52526" lon="3.54173">
        <ele>120</ele>
        <time>2016-04-22T13:09:36Z</time>
      </trkpt>
      <trkpt lat="43.5246" lon="3.53916">
        <ele>106</ele>
        <time>2016-04-22T13:10:06Z</time>
      </trkpt>
      <trkpt lat="43.52457" lon="3.53911">
        <ele>106</ele>
        <time>2016-04-22T13:10:07Z</time>
      </trkpt>
      <trkpt lat="43.52454" lon="3.53896">
        <ele>105</ele>
        <time>2016-04-22T13:10:10Z</time>
      </trkpt>
      <trkpt lat="43.52451" lon="3.53891">
        <ele>105</ele>
        <time>2016-04-22T13:10:11Z</time>
      </trkpt>
      <trkpt lat="43.52447" lon="3.53877">
        <ele>104</ele>
        <time>2016-04-22T13:10:14Z</time>
      </trkpt>
      <trkpt lat="43.52443" lon="3.53869">
        <ele>104</ele>
        <time>2016-04-22T13:10:16Z</time>
      </trkpt>
      <trkpt lat="43.52438" lon="3.5386">
        <ele>104</ele>
        <time>2016-04-22T13:10:18Z</time>
      </trkpt>
      <trkpt lat="43.52388" lon="3.5378">
        <ele>109</ele>
        <time>2016-04-22T13:10:41Z</time>
      </trkpt>
      <trkpt lat="43.52383" lon="3.53775">
        <ele>109</ele>
        <time>2016-04-22T13:10:42Z</time>
      </trkpt>
      <trkpt lat="43.5237" lon="3.53754">
        <ele>107</ele>
        <time>2016-04-22T13:10:46Z</time>
      </trkpt>
      <trkpt lat="43.52365" lon="3.53751">
        <ele>107</ele>
        <time>2016-04-22T13:10:47Z</time>
      </trkpt>
      <trkpt lat="43.52276" lon="3.53613">
        <ele>102</ele>
        <time>2016-04-22T13:11:17Z</time>
      </trkpt>
      <trkpt lat="43.52265" lon="3.53581">
        <ele>99</ele>
        <time>2016-04-22T13:11:25Z</time>
      </trkpt>
      <trkpt lat="43.52261" lon="3.53573">
        <ele>99</ele>
        <time>2016-04-22T13:11:28Z</time>
      </trkpt>
      <trkpt lat="43.52258" lon="3.53567">
        <ele>98</ele>
        <time>2016-04-22T13:11:30Z</time>
      </trkpt>
      <trkpt lat="43.52254" lon="3.5356">
        <ele>99</ele>
        <time>2016-04-22T13:11:32Z</time>
      </trkpt>
      <trkpt lat="43.52249" lon="3.53551">
        <ele>98</ele>
        <time>2016-04-22T13:11:34Z</time>
      </trkpt>
      <trkpt lat="43.52246" lon="3.53547">
        <ele>98</ele>
        <time>2016-04-22T13:11:35Z</time>
      </trkpt>
      <trkpt lat="43.52142" lon="3.53382">
        <ele>93</ele>
        <time>2016-04-22T13:12:05Z</time>
      </trkpt>
      <trkpt lat="43.52134" lon="3.53369">
        <ele>93</ele>
        <time>2016-04-22T13:12:08Z</time>
      </trkpt>
      <trkpt lat="43.52129" lon="3.53367">
        <ele>93</ele>
        <time>2016-04-22T13:12:09Z</time>
      </trkpt>
      <trkpt lat="43.52125" lon="3.53362">
        <ele>93</ele>
        <time>2016-04-22T13:12:10Z</time>
      </trkpt>
      <trkpt lat="43.52122" lon="3.53352">
        <ele>93</ele>
        <time>2016-04-22T13:12:12Z</time>
      </trkpt>
      <trkpt lat="43.52119" lon="3.5335">
        <ele>93</ele>
        <time>2016-04-22T13:12:13Z</time>
      </trkpt>
      <trkpt lat="43.52116" lon="3.53347">
        <ele>93</ele>
        <time>2016-04-22T13:12:14Z</time>
      </trkpt>
      <trkpt lat="43.52114" lon="3.53343">
        <ele>93</ele>
        <time>2016-04-22T13:12:15Z</time>
      </trkpt>
      <trkpt lat="43.52112" lon="3.5334">
        <ele>93</ele>
        <time>2016-04-22T13:12:16Z</time>
      </trkpt>
      <trkpt lat="43.52103" lon="3.53327">
        <ele>93</ele>
        <time>2016-04-22T13:12:20Z</time>
      </trkpt>
      <trkpt lat="43.521" lon="3.53323">
        <ele>93</ele>
        <time>2016-04-22T13:12:21Z</time>
      </trkpt>
      <trkpt lat="43.52094" lon="3.53311">
        <ele>93</ele>
        <time>2016-04-22T13:12:24Z</time>
      </trkpt>
      <trkpt lat="43.52092" lon="3.53307">
        <ele>93</ele>
        <time>2016-04-22T13:12:25Z</time>
      </trkpt>
      <trkpt lat="43.5209" lon="3.53302">
        <ele>93</ele>
        <time>2016-04-22T13:12:26Z</time>
      </trkpt>
      <trkpt lat="43.52087" lon="3.53292">
        <ele>93</ele>
        <time>2016-04-22T13:12:28Z</time>
      </trkpt>
      <trkpt lat="43.52083" lon="3.53282">
        <ele>93</ele>
        <time>2016-04-22T13:12:30Z</time>
      </trkpt>
      <trkpt lat="43.5208" lon="3.53273">
        <ele>93</ele>
        <time>2016-04-22T13:12:32Z</time>
      </trkpt>
      <trkpt lat="43.52073" lon="3.53259">
        <ele>91</ele>
        <time>2016-04-22T13:12:36Z</time>
      </trkpt>
      <trkpt lat="43.52073" lon="3.53256">
        <ele>91</ele>
        <time>2016-04-22T13:12:37Z</time>
      </trkpt>
      <trkpt lat="43.52073" lon="3.53252">
        <ele>91</ele>
        <time>2016-04-22T13:12:38Z</time>
      </trkpt>
      <trkpt lat="43.52046" lon="3.53101">
        <ele>93</ele>
        <time>2016-04-22T13:13:09Z</time>
      </trkpt>
      <trkpt lat="43.51998" lon="3.52965">
        <ele>88</ele>
        <time>2016-04-22T13:13:35Z</time>
      </trkpt>
      <trkpt lat="43.51995" lon="3.52964">
        <ele>87</ele>
        <time>2016-04-22T13:13:36Z</time>
      </trkpt>
      <trkpt lat="43.51986" lon="3.52966">
        <ele>86</ele>
        <time>2016-04-22T13:13:39Z</time>
      </trkpt>
      <trkpt lat="43.51928" lon="3.52992">
        <ele>81</ele>
        <time>2016-04-22T13:13:51Z</time>
      </trkpt>
      <trkpt lat="43.51922" lon="3.53006">
        <ele>81</ele>
        <time>2016-04-22T13:13:53Z</time>
      </trkpt>
      <trkpt lat="43.51925" lon="3.53038">
        <ele>80</ele>
        <time>2016-04-22T13:13:57Z</time>
      </trkpt>
      <trkpt lat="43.51921" lon="3.53052">
        <ele>79</ele>
        <time>2016-04-22T13:13:59Z</time>
      </trkpt>
      <trkpt lat="43.51917" lon="3.53062">
        <ele>80</ele>
        <time>2016-04-22T13:14:01Z</time>
      </trkpt>
      <trkpt lat="43.51912" lon="3.53067">
        <ele>80</ele>
        <time>2016-04-22T13:14:03Z</time>
      </trkpt>
      <trkpt lat="43.51909" lon="3.53067">
        <ele>80</ele>
        <time>2016-04-22T13:14:04Z</time>
      </trkpt>
      <trkpt lat="43.51907" lon="3.5307">
        <ele>81</ele>
        <time>2016-04-22T13:14:05Z</time>
      </trkpt>
      <trkpt lat="43.51905" lon="3.53071">
        <ele>81</ele>
        <time>2016-04-22T13:14:06Z</time>
      </trkpt>
      <trkpt lat="43.51885" lon="3.53079">
        <ele>83</ele>
        <time>2016-04-22T13:14:14Z</time>
      </trkpt>
      <trkpt lat="43.51876" lon="3.53081">
        <ele>83</ele>
        <time>2016-04-22T13:14:18Z</time>
      </trkpt>
      <trkpt lat="43.51863" lon="3.53083">
        <ele>82</ele>
        <time>2016-04-22T13:14:23Z</time>
      </trkpt>
      <trkpt lat="43.51859" lon="3.53083">
        <ele>82</ele>
        <time>2016-04-22T13:14:25Z</time>
      </trkpt>
      <trkpt lat="43.51856" lon="3.53083">
        <ele>82</ele>
        <time>2016-04-22T13:14:27Z</time>
      </trkpt>
      <trkpt lat="43.51852" lon="3.53083">
        <ele>82</ele>
        <time>2016-04-22T13:14:29Z</time>
      </trkpt>
      <trkpt lat="43.51847" lon="3.53085">
        <ele>82</ele>
        <time>2016-04-22T13:14:31Z</time>
      </trkpt>
      <trkpt lat="43.51831" lon="3.5309">
        <ele>84</ele>
        <time>2016-04-22T13:14:39Z</time>
      </trkpt>
      <trkpt lat="43.51827" lon="3.5309">
        <ele>84</ele>
        <time>2016-04-22T13:14:41Z</time>
      </trkpt>
      <trkpt lat="43.51825" lon="3.53094">
        <ele>84</ele>
        <time>2016-04-22T13:14:42Z</time>
      </trkpt>
      <trkpt lat="43.51821" lon="3.53098">
        <ele>84</ele>
        <time>2016-04-22T13:14:44Z</time>
      </trkpt>
      <trkpt lat="43.51818" lon="3.53101">
        <ele>84</ele>
        <time>2016-04-22T13:14:46Z</time>
      </trkpt>
      <trkpt lat="43.51815" lon="3.53102">
        <ele>84</ele>
        <time>2016-04-22T13:14:48Z</time>
      </trkpt>
      <trkpt lat="43.51812" lon="3.53103">
        <ele>83</ele>
        <time>2016-04-22T13:14:50Z</time>
      </trkpt>
      <trkpt lat="43.5181" lon="3.53105">
        <ele>83</ele>
        <time>2016-04-22T13:14:53Z</time>
      </trkpt>
      <trkpt lat="43.51804" lon="3.53104">
        <ele>84</ele>
        <time>2016-04-22T13:14:58Z</time>
      </trkpt>
      <trkpt lat="43.51795" lon="3.53111">
        <ele>86</ele>
        <time>2016-04-22T13:15:03Z</time>
      </trkpt>
      <trkpt lat="43.5179" lon="3.53116">
        <ele>87</ele>
        <time>2016-04-22T13:15:06Z</time>
      </trkpt>
      <trkpt lat="43.5178" lon="3.53125">
        <ele>87</ele>
        <time>2016-04-22T13:15:12Z</time>
      </trkpt>
      <trkpt lat="43.51777" lon="3.53128">
        <ele>87</ele>
        <time>2016-04-22T13:15:14Z</time>
      </trkpt>
      <trkpt lat="43.5177" lon="3.53133">
        <ele>88</ele>
        <time>2016-04-22T13:15:18Z</time>
      </trkpt>
      <trkpt lat="43.51765" lon="3.53138">
        <ele>89</ele>
        <time>2016-04-22T13:15:21Z</time>
      </trkpt>
      <trkpt lat="43.51737" lon="3.53155">
        <ele>92</ele>
        <time>2016-04-22T13:15:37Z</time>
      </trkpt>
      <trkpt lat="43.51735" lon="3.53156">
        <ele>92</ele>
        <time>2016-04-22T13:15:38Z</time>
      </trkpt>
      <trkpt lat="43.51726" lon="3.53158">
        <ele>92</ele>
        <time>2016-04-22T13:15:42Z</time>
      </trkpt>
      <trkpt lat="43.51722" lon="3.53158">
        <ele>91</ele>
        <time>2016-04-22T13:15:44Z</time>
      </trkpt>
      <trkpt lat="43.51719" lon="3.53157">
        <ele>92</ele>
        <time>2016-04-22T13:15:46Z</time>
      </trkpt>
      <trkpt lat="43.51716" lon="3.53157">
        <ele>91</ele>
        <time>2016-04-22T13:15:48Z</time>
      </trkpt>
      <trkpt lat="43.51701" lon="3.53161">
        <ele>92</ele>
        <time>2016-04-22T13:15:57Z</time>
      </trkpt>
      <trkpt lat="43.51689" lon="3.53159">
        <ele>89</ele>
        <time>2016-04-22T13:16:03Z</time>
      </trkpt>
      <trkpt lat="43.51678" lon="3.53167">
        <ele>90</ele>
        <time>2016-04-22T13:16:09Z</time>
      </trkpt>
      <trkpt lat="43.51655" lon="3.53176">
        <ele>94</ele>
        <time>2016-04-22T13:16:22Z</time>
      </trkpt>
      <trkpt lat="43.51644" lon="3.5318">
        <ele>94</ele>
        <time>2016-04-22T13:16:28Z</time>
      </trkpt>
      <trkpt lat="43.51638" lon="3.53187">
        <ele>95</ele>
        <time>2016-04-22T13:16:31Z</time>
      </trkpt>
      <trkpt lat="43.51635" lon="3.53189">
        <ele>95</ele>
        <time>2016-04-22T13:16:33Z</time>
      </trkpt>
      <trkpt lat="43.51632" lon="3.53188">
        <ele>95</ele>
        <time>2016-04-22T13:16:35Z</time>
      </trkpt>
      <trkpt lat="43.51628" lon="3.53188">
        <ele>96</ele>
        <time>2016-04-22T13:16:37Z</time>
      </trkpt>
      <trkpt lat="43.51624" lon="3.5319">
        <ele>97</ele>
        <time>2016-04-22T13:16:39Z</time>
      </trkpt>
      <trkpt lat="43.5162" lon="3.53192">
        <ele>97</ele>
        <time>2016-04-22T13:16:41Z</time>
      </trkpt>
      <trkpt lat="43.51616" lon="3.53194">
        <ele>97</ele>
        <time>2016-04-22T13:16:43Z</time>
      </trkpt>
      <trkpt lat="43.51614" lon="3.53195">
        <ele>97</ele>
        <time>2016-04-22T13:16:44Z</time>
      </trkpt>
      <trkpt lat="43.51611" lon="3.53196">
        <ele>97</ele>
        <time>2016-04-22T13:16:45Z</time>
      </trkpt>
      <trkpt lat="43.51609" lon="3.53197">
        <ele>97</ele>
        <time>2016-04-22T13:16:46Z</time>
      </trkpt>
      <trkpt lat="43.51591" lon="3.53202">
        <ele>99</ele>
        <time>2016-04-22T13:16:55Z</time>
      </trkpt>
      <trkpt lat="43.51566" lon="3.53208">
        <ele>97</ele>
        <time>2016-04-22T13:17:08Z</time>
      </trkpt>
      <trkpt lat="43.51555" lon="3.53215">
        <ele>98</ele>
        <time>2016-04-22T13:17:14Z</time>
      </trkpt>
      <trkpt lat="43.51526" lon="3.53229">
        <ele>106</ele>
        <time>2016-04-22T13:17:32Z</time>
      </trkpt>
      <trkpt lat="43.5152" lon="3.53228">
        <ele>106</ele>
        <time>2016-04-22T13:17:35Z</time>
      </trkpt>
      <trkpt lat="43.51507" lon="3.5323">
        <ele>108</ele>
        <time>2016-04-22T13:17:46Z</time>
      </trkpt>
      <trkpt lat="43.51502" lon="3.5323">
        <ele>108</ele>
        <time>2016-04-22T13:17:52Z</time>
      </trkpt>
      <trkpt lat="43.51498" lon="3.53228">
        <ele>108</ele>
        <time>2016-04-22T13:17:56Z</time>
      </trkpt>
      <trkpt lat="43.51492" lon="3.53229">
        <ele>108</ele>
        <time>2016-04-22T13:17:59Z</time>
      </trkpt>
      <trkpt lat="43.51486" lon="3.53228">
        <ele>108</ele>
        <time>2016-04-22T13:18:02Z</time>
      </trkpt>
      <trkpt lat="43.51471" lon="3.53225">
        <ele>113</ele>
        <time>2016-04-22T13:18:12Z</time>
      </trkpt>
      <trkpt lat="43.51462" lon="3.5323">
        <ele>113</ele>
        <time>2016-04-22T13:18:18Z</time>
      </trkpt>
      <trkpt lat="43.51453" lon="3.53235">
        <ele>115</ele>
        <time>2016-04-22T13:18:26Z</time>
      </trkpt>
      <trkpt lat="43.51449" lon="3.53238">
        <ele>115</ele>
        <time>2016-04-22T13:18:31Z</time>
      </trkpt>
      <trkpt lat="43.51445" lon="3.53234">
        <ele>115</ele>
        <time>2016-04-22T13:18:34Z</time>
      </trkpt>
      <trkpt lat="43.51438" lon="3.53223">
        <ele>116</ele>
        <time>2016-04-22T13:18:41Z</time>
      </trkpt>
      <trkpt lat="43.51422" lon="3.53205">
        <ele>119</ele>
        <time>2016-04-22T13:18:54Z</time>
      </trkpt>
      <trkpt lat="43.51409" lon="3.53183">
        <ele>120</ele>
        <time>2016-04-22T13:19:06Z</time>
      </trkpt>
      <trkpt lat="43.51408" lon="3.53176">
        <ele>121</ele>
        <time>2016-04-22T13:19:09Z</time>
      </trkpt>
      <trkpt lat="43.51409" lon="3.53168">
        <ele>121</ele>
        <time>2016-04-22T13:19:12Z</time>
      </trkpt>
      <trkpt lat="43.51413" lon="3.53161">
        <ele>120</ele>
        <time>2016-04-22T13:19:15Z</time>
      </trkpt>
      <trkpt lat="43.51417" lon="3.53148">
        <ele>121</ele>
        <time>2016-04-22T13:19:21Z</time>
      </trkpt>
      <trkpt lat="43.51414" lon="3.53141">
        <ele>122</ele>
        <time>2016-04-22T13:19:24Z</time>
      </trkpt>
      <trkpt lat="43.51409" lon="3.53136">
        <ele>122</ele>
        <time>2016-04-22T13:19:27Z</time>
      </trkpt>
      <trkpt lat="43.51405" lon="3.53138">
        <ele>122</ele>
        <time>2016-04-22T13:19:29Z</time>
      </trkpt>
      <trkpt lat="43.51399" lon="3.53144">
        <ele>123</ele>
        <time>2016-04-22T13:19:32Z</time>
      </trkpt>
      <trkpt lat="43.51389" lon="3.53155">
        <ele>122</ele>
        <time>2016-04-22T13:19:37Z</time>
      </trkpt>
      <trkpt lat="43.51383" lon="3.53162">
        <ele>123</ele>
        <time>2016-04-22T13:19:40Z</time>
      </trkpt>
      <trkpt lat="43.51378" lon="3.53169">
        <ele>122</ele>
        <time>2016-04-22T13:19:43Z</time>
      </trkpt>
      <trkpt lat="43.51375" lon="3.53173">
        <ele>123</ele>
        <time>2016-04-22T13:19:45Z</time>
      </trkpt>
      <trkpt lat="43.51373" lon="3.53175">
        <ele>122</ele>
        <time>2016-04-22T13:19:46Z</time>
      </trkpt>
      <trkpt lat="43.51364" lon="3.53185">
        <ele>123</ele>
        <time>2016-04-22T13:19:51Z</time>
      </trkpt>
      <trkpt lat="43.51359" lon="3.5319">
        <ele>123</ele>
        <time>2016-04-22T13:19:54Z</time>
      </trkpt>
      <trkpt lat="43.51347" lon="3.53204">
        <ele>124</ele>
        <time>2016-04-22T13:20:01Z</time>
      </trkpt>
      <trkpt lat="43.51346" lon="3.53206">
        <ele>124</ele>
        <time>2016-04-22T13:20:02Z</time>
      </trkpt>
      <trkpt lat="43.51341" lon="3.53214">
        <ele>124</ele>
        <time>2016-04-22T13:20:05Z</time>
      </trkpt>
      <trkpt lat="43.51333" lon="3.53224">
        <ele>125</ele>
        <time>2016-04-22T13:20:09Z</time>
      </trkpt>
      <trkpt lat="43.51326" lon="3.53234">
        <ele>125</ele>
        <time>2016-04-22T13:20:13Z</time>
      </trkpt>
      <trkpt lat="43.51284" lon="3.53325">
        <ele>134</ele>
        <time>2016-04-22T13:20:44Z</time>
      </trkpt>
      <trkpt lat="43.51276" lon="3.53356">
        <ele>134</ele>
        <time>2016-04-22T13:20:52Z</time>
      </trkpt>
      <trkpt lat="43.51274" lon="3.53362">
        <ele>134</ele>
        <time>2016-04-22T13:20:54Z</time>
      </trkpt>
      <trkpt lat="43.51272" lon="3.53368">
        <ele>134</ele>
        <time>2016-04-22T13:20:56Z</time>
      </trkpt>
      <trkpt lat="43.51271" lon="3.53372">
        <ele>134</ele>
        <time>2016-04-22T13:20:57Z</time>
      </trkpt>
      <trkpt lat="43.5127" lon="3.53375">
        <ele>134</ele>
        <time>2016-04-22T13:20:58Z</time>
      </trkpt>
      <trkpt lat="43.51268" lon="3.53381">
        <ele>134</ele>
        <time>2016-04-22T13:21:00Z</time>
      </trkpt>
      <trkpt lat="43.51256" lon="3.53438">
        <ele>133</ele>
        <time>2016-04-22T13:21:16Z</time>
      </trkpt>
      <trkpt lat="43.51257" lon="3.5346">
        <ele>134</ele>
        <time>2016-04-22T13:21:22Z</time>
      </trkpt>
      <trkpt lat="43.51256" lon="3.53464">
        <ele>134</ele>
        <time>2016-04-22T13:21:23Z</time>
      </trkpt>
      <trkpt lat="43.51256" lon="3.53468">
        <ele>134</ele>
        <time>2016-04-22T13:21:24Z</time>
      </trkpt>
      <trkpt lat="43.51256" lon="3.53489">
        <ele>133</ele>
        <time>2016-04-22T13:21:30Z</time>
      </trkpt>
      <trkpt lat="43.51255" lon="3.5351">
        <ele>131</ele>
        <time>2016-04-22T13:21:37Z</time>
      </trkpt>
      <trkpt lat="43.51255" lon="3.53514">
        <ele>131</ele>
        <time>2016-04-22T13:21:38Z</time>
      </trkpt>
      <trkpt lat="43.51254" lon="3.53517">
        <ele>131</ele>
        <time>2016-04-22T13:21:39Z</time>
      </trkpt>
      <trkpt lat="43.51253" lon="3.53544">
        <ele>131</ele>
        <time>2016-04-22T13:21:48Z</time>
      </trkpt>
      <trkpt lat="43.51254" lon="3.53595">
        <ele>135</ele>
        <time>2016-04-22T13:22:09Z</time>
      </trkpt>
      <trkpt lat="43.51254" lon="3.536">
        <ele>135</ele>
        <time>2016-04-22T13:22:11Z</time>
      </trkpt>
      <trkpt lat="43.51257" lon="3.53616">
        <ele>135</ele>
        <time>2016-04-22T13:22:18Z</time>
      </trkpt>
      <trkpt lat="43.51267" lon="3.53652">
        <ele>139</ele>
        <time>2016-04-22T13:22:35Z</time>
      </trkpt>
      <trkpt lat="43.51271" lon="3.53672">
        <ele>139</ele>
        <time>2016-04-22T13:22:46Z</time>
      </trkpt>
      <trkpt lat="43.51269" lon="3.53678">
        <ele>140</ele>
        <time>2016-04-22T13:22:51Z</time>
      </trkpt>
      <trkpt lat="43.5127" lon="3.53684">
        <ele>140</ele>
        <time>2016-04-22T13:22:54Z</time>
      </trkpt>
      <trkpt lat="43.5127" lon="3.53698">
        <ele>142</ele>
        <time>2016-04-22T13:22:59Z</time>
      </trkpt>
      <trkpt lat="43.51271" lon="3.53707">
        <ele>142</ele>
        <time>2016-04-22T13:23:02Z</time>
      </trkpt>
      <trkpt lat="43.51275" lon="3.53719">
        <ele>144</ele>
        <time>2016-04-22T13:23:10Z</time>
      </trkpt>
      <trkpt lat="43.51274" lon="3.53727">
        <ele>144</ele>
        <time>2016-04-22T13:23:15Z</time>
      </trkpt>
      <trkpt lat="43.51271" lon="3.53732">
        <ele>143</ele>
        <time>2016-04-22T13:23:18Z</time>
      </trkpt>
      <trkpt lat="43.51268" lon="3.53739">
        <ele>144</ele>
        <time>2016-04-22T13:23:21Z</time>
      </trkpt>
      <trkpt lat="43.51271" lon="3.53746">
        <ele>145</ele>
        <time>2016-04-22T13:23:25Z</time>
      </trkpt>
      <trkpt lat="43.51274" lon="3.53753">
        <ele>146</ele>
        <time>2016-04-22T13:23:28Z</time>
      </trkpt>
      <trkpt lat="43.51277" lon="3.53783">
        <ele>147</ele>
        <time>2016-04-22T13:23:40Z</time>
      </trkpt>
      <trkpt lat="43.51277" lon="3.5379">
        <ele>147</ele>
        <time>2016-04-22T13:23:43Z</time>
      </trkpt>
      <trkpt lat="43.51279" lon="3.53804">
        <ele>146</ele>
        <time>2016-04-22T13:23:49Z</time>
      </trkpt>
      <trkpt lat="43.51282" lon="3.53818">
        <ele>145</ele>
        <time>2016-04-22T13:23:55Z</time>
      </trkpt>
      <trkpt lat="43.51282" lon="3.53836">
        <ele>146</ele>
        <time>2016-04-22T13:24:02Z</time>
      </trkpt>
      <trkpt lat="43.51284" lon="3.53856">
        <ele>146</ele>
        <time>2016-04-22T13:24:08Z</time>
      </trkpt>
      <trkpt lat="43.51283" lon="3.53867">
        <ele>146</ele>
        <time>2016-04-22T13:24:11Z</time>
      </trkpt>
      <trkpt lat="43.51282" lon="3.53875">
        <ele>148</ele>
        <time>2016-04-22T13:24:15Z</time>
      </trkpt>
      <trkpt lat="43.51292" lon="3.53897">
        <ele>152</ele>
        <time>2016-04-22T13:24:26Z</time>
      </trkpt>
      <trkpt lat="43.51313" lon="3.5394">
        <ele>154</ele>
        <time>2016-04-22T13:24:48Z</time>
      </trkpt>
      <trkpt lat="43.51319" lon="3.53957">
        <ele>155</ele>
        <time>2016-04-22T13:25:02Z</time>
      </trkpt>
      <trkpt lat="43.51323" lon="3.53963">
        <ele>155</ele>
        <time>2016-04-22T13:26:13Z</time>
      </trkpt>
      <trkpt lat="43.51331" lon="3.5398">
        <ele>153</ele>
        <time>2016-04-22T13:26:18Z</time>
      </trkpt>
      <trkpt lat="43.51335" lon="3.53988">
        <ele>153</ele>
        <time>2016-04-22T13:26:20Z</time>
      </trkpt>
      <trkpt lat="43.51337" lon="3.53993">
        <ele>153</ele>
        <time>2016-04-22T13:26:21Z</time>
      </trkpt>
      <trkpt lat="43.51338" lon="3.53998">
        <ele>153</ele>
        <time>2016-04-22T13:26:22Z</time>
      </trkpt>
      <trkpt lat="43.5134" lon="3.54032">
        <ele>151</ele>
        <time>2016-04-22T13:26:27Z</time>
      </trkpt>
      <trkpt lat="43.51341" lon="3.54038">
        <ele>151</ele>
        <time>2016-04-22T13:26:28Z</time>
      </trkpt>
      <trkpt lat="43.51345" lon="3.54062">
        <ele>151</ele>
        <time>2016-04-22T13:26:35Z</time>
      </trkpt>
      <trkpt lat="43.5135" lon="3.54065">
        <ele>150</ele>
        <time>2016-04-22T13:26:50Z</time>
      </trkpt>
      <trkpt lat="43.51351" lon="3.54072">
        <ele>150</ele>
        <time>2016-04-22T13:26:53Z</time>
      </trkpt>
      <trkpt lat="43.51367" lon="3.54105">
        <ele>149</ele>
        <time>2016-04-22T13:27:03Z</time>
      </trkpt>
      <trkpt lat="43.51373" lon="3.54115">
        <ele>150</ele>
        <time>2016-04-22T13:27:06Z</time>
      </trkpt>
      <trkpt lat="43.5138" lon="3.54128">
        <ele>149</ele>
        <time>2016-04-22T13:27:10Z</time>
      </trkpt>
      <trkpt lat="43.51381" lon="3.54133">
        <ele>148</ele>
        <time>2016-04-22T13:27:12Z</time>
      </trkpt>
      <trkpt lat="43.51382" lon="3.54138">
        <ele>148</ele>
        <time>2016-04-22T13:27:14Z</time>
      </trkpt>
      <trkpt lat="43.51385" lon="3.54151">
        <ele>147</ele>
        <time>2016-04-22T13:27:20Z</time>
      </trkpt>
      <trkpt lat="43.51388" lon="3.54166">
        <ele>147</ele>
        <time>2016-04-22T13:27:26Z</time>
      </trkpt>
      <trkpt lat="43.51392" lon="3.5418">
        <ele>146</ele>
        <time>2016-04-22T13:27:33Z</time>
      </trkpt>
      <trkpt lat="43.51394" lon="3.54186">
        <ele>146</ele>
        <time>2016-04-22T13:27:36Z</time>
      </trkpt>
      <trkpt lat="43.51399" lon="3.54208">
        <ele>148</ele>
        <time>2016-04-22T13:27:48Z</time>
      </trkpt>
      <trkpt lat="43.51399" lon="3.54215">
        <ele>150</ele>
        <time>2016-04-22T13:27:52Z</time>
      </trkpt>
      <trkpt lat="43.51402" lon="3.54249">
        <ele>148</ele>
        <time>2016-04-22T13:28:13Z</time>
      </trkpt>
      <trkpt lat="43.51403" lon="3.54257">
        <ele>148</ele>
        <time>2016-04-22T13:28:17Z</time>
      </trkpt>
      <trkpt lat="43.51405" lon="3.54277">
        <ele>152</ele>
        <time>2016-04-22T13:28:26Z</time>
      </trkpt>
      <trkpt lat="43.51406" lon="3.54315">
        <ele>153</ele>
        <time>2016-04-22T13:28:42Z</time>
      </trkpt>
      <trkpt lat="43.51406" lon="3.54322">
        <ele>153</ele>
        <time>2016-04-22T13:28:45Z</time>
      </trkpt>
      <trkpt lat="43.51408" lon="3.5433">
        <ele>153</ele>
        <time>2016-04-22T13:28:49Z</time>
      </trkpt>
      <trkpt lat="43.51414" lon="3.54356">
        <ele>157</ele>
        <time>2016-04-22T13:29:02Z</time>
      </trkpt>
      <trkpt lat="43.51415" lon="3.54375">
        <ele>158</ele>
        <time>2016-04-22T13:29:11Z</time>
      </trkpt>
      <trkpt lat="43.51418" lon="3.5439">
        <ele>161</ele>
        <time>2016-04-22T13:29:19Z</time>
      </trkpt>
      <trkpt lat="43.5142" lon="3.54398">
        <ele>161</ele>
        <time>2016-04-22T13:29:22Z</time>
      </trkpt>
      <trkpt lat="43.51421" lon="3.54406">
        <ele>161</ele>
        <time>2016-04-22T13:29:25Z</time>
      </trkpt>
      <trkpt lat="43.51422" lon="3.54421">
        <ele>159</ele>
        <time>2016-04-22T13:29:32Z</time>
      </trkpt>
      <trkpt lat="43.51422" lon="3.54451">
        <ele>158</ele>
        <time>2016-04-22T13:29:40Z</time>
      </trkpt>
      <trkpt lat="43.51422" lon="3.54467">
        <ele>160</ele>
        <time>2016-04-22T13:29:46Z</time>
      </trkpt>
      <trkpt lat="43.51419" lon="3.54481">
        <ele>160</ele>
        <time>2016-04-22T13:29:52Z</time>
      </trkpt>
      <trkpt lat="43.51418" lon="3.54487">
        <ele>160</ele>
        <time>2016-04-22T13:29:55Z</time>
      </trkpt>
      <trkpt lat="43.51419" lon="3.54495">
        <ele>159</ele>
        <time>2016-04-22T13:29:59Z</time>
      </trkpt>
      <trkpt lat="43.5142" lon="3.54503">
        <ele>159</ele>
        <time>2016-04-22T13:30:03Z</time>
      </trkpt>
      <trkpt lat="43.51413" lon="3.54566">
        <ele>166</ele>
        <time>2016-04-22T13:30:33Z</time>
      </trkpt>
      <trkpt lat="43.51412" lon="3.54573">
        <ele>165</ele>
        <time>2016-04-22T13:30:36Z</time>
      </trkpt>
      <trkpt lat="43.5141" lon="3.54588">
        <ele>163</ele>
        <time>2016-04-22T13:30:43Z</time>
      </trkpt>
      <trkpt lat="43.51406" lon="3.54602">
        <ele>163</ele>
        <time>2016-04-22T13:30:49Z</time>
      </trkpt>
      <trkpt lat="43.51403" lon="3.54617">
        <ele>165</ele>
        <time>2016-04-22T13:30:57Z</time>
      </trkpt>
      <trkpt lat="43.51394" lon="3.54646">
        <ele>169</ele>
        <time>2016-04-22T13:31:10Z</time>
      </trkpt>
      <trkpt lat="43.51393" lon="3.54652">
        <ele>169</ele>
        <time>2016-04-22T13:31:13Z</time>
      </trkpt>
      <trkpt lat="43.51388" lon="3.54665">
        <ele>169</ele>
        <time>2016-04-22T13:31:20Z</time>
      </trkpt>
      <trkpt lat="43.51387" lon="3.54672">
        <ele>169</ele>
        <time>2016-04-22T13:31:23Z</time>
      </trkpt>
      <trkpt lat="43.51386" lon="3.54686">
        <ele>170</ele>
        <time>2016-04-22T13:31:29Z</time>
      </trkpt>
      <trkpt lat="43.51385" lon="3.54699">
        <ele>170</ele>
        <time>2016-04-22T13:31:35Z</time>
      </trkpt>
      <trkpt lat="43.5137" lon="3.54743">
        <ele>174</ele>
        <time>2016-04-22T13:31:48Z</time>
      </trkpt>
      <trkpt lat="43.51365" lon="3.5476">
        <ele>173</ele>
        <time>2016-04-22T13:31:53Z</time>
      </trkpt>
      <trkpt lat="43.51365" lon="3.54763">
        <ele>173</ele>
        <time>2016-04-22T13:31:54Z</time>
      </trkpt>
      <trkpt lat="43.51364" lon="3.54788">
        <ele>174</ele>
        <time>2016-04-22T13:32:01Z</time>
      </trkpt>
      <trkpt lat="43.51365" lon="3.54798">
        <ele>174</ele>
        <time>2016-04-22T13:32:04Z</time>
      </trkpt>
      <trkpt lat="43.51364" lon="3.54815">
        <ele>175</ele>
        <time>2016-04-22T13:32:09Z</time>
      </trkpt>
      <trkpt lat="43.51364" lon="3.54819">
        <ele>175</ele>
        <time>2016-04-22T13:32:10Z</time>
      </trkpt>
      <trkpt lat="43.51364" lon="3.54833">
        <ele>175</ele>
        <time>2016-04-22T13:32:14Z</time>
      </trkpt>
      <trkpt lat="43.51364" lon="3.54837">
        <ele>175</ele>
        <time>2016-04-22T13:32:15Z</time>
      </trkpt>
      <trkpt lat="43.51365" lon="3.5484">
        <ele>175</ele>
        <time>2016-04-22T13:32:16Z</time>
      </trkpt>
      <trkpt lat="43.51365" lon="3.54846">
        <ele>175</ele>
        <time>2016-04-22T13:32:18Z</time>
      </trkpt>
      <trkpt lat="43.51366" lon="3.54855">
        <ele>176</ele>
        <time>2016-04-22T13:32:21Z</time>
      </trkpt>
      <trkpt lat="43.51367" lon="3.54861">
        <ele>176</ele>
        <time>2016-04-22T13:32:23Z</time>
      </trkpt>
      <trkpt lat="43.51371" lon="3.5487">
        <ele>176</ele>
        <time>2016-04-22T13:32:26Z</time>
      </trkpt>
      <trkpt lat="43.51372" lon="3.54872">
        <ele>176</ele>
        <time>2016-04-22T13:32:27Z</time>
      </trkpt>
      <trkpt lat="43.51374" lon="3.54875">
        <ele>175</ele>
        <time>2016-04-22T13:32:28Z</time>
      </trkpt>
      <trkpt lat="43.5139" lon="3.54885">
        <ele>177</ele>
        <time>2016-04-22T13:32:35Z</time>
      </trkpt>
      <trkpt lat="43.51393" lon="3.54887">
        <ele>176</ele>
        <time>2016-04-22T13:32:36Z</time>
      </trkpt>
      <trkpt lat="43.51395" lon="3.54888">
        <ele>176</ele>
        <time>2016-04-22T13:32:37Z</time>
      </trkpt>
      <trkpt lat="43.51403" lon="3.54906">
        <ele>178</ele>
        <time>2016-04-22T13:32:44Z</time>
      </trkpt>
      <trkpt lat="43.51403" lon="3.54927">
        <ele>179</ele>
        <time>2016-04-22T13:32:50Z</time>
      </trkpt>
      <trkpt lat="43.51403" lon="3.5493">
        <ele>179</ele>
        <time>2016-04-22T13:32:51Z</time>
      </trkpt>
      <trkpt lat="43.51402" lon="3.54935">
        <ele>178</ele>
        <time>2016-04-22T13:32:52Z</time>
      </trkpt>
      <trkpt lat="43.51404" lon="3.54985">
        <ele>177</ele>
        <time>2016-04-22T13:33:00Z</time>
      </trkpt>
      <trkpt lat="43.51403" lon="3.54992">
        <ele>177</ele>
        <time>2016-04-22T13:33:01Z</time>
      </trkpt>
      <trkpt lat="43.51394" lon="3.55076">
        <ele>176</ele>
        <time>2016-04-22T13:33:14Z</time>
      </trkpt>
      <trkpt lat="43.51387" lon="3.55084">
        <ele>176</ele>
        <time>2016-04-22T13:33:15Z</time>
      </trkpt>
      <trkpt lat="43.5137" lon="3.55096">
        <ele>176</ele>
        <time>2016-04-22T13:33:20Z</time>
      </trkpt>
      <trkpt lat="43.51366" lon="3.551">
        <ele>177</ele>
        <time>2016-04-22T13:33:22Z</time>
      </trkpt>
      <trkpt lat="43.51364" lon="3.55102">
        <ele>177</ele>
        <time>2016-04-22T13:33:23Z</time>
      </trkpt>
      <trkpt lat="43.51361" lon="3.55106">
        <ele>176</ele>
        <time>2016-04-22T13:33:25Z</time>
      </trkpt>
      <trkpt lat="43.51355" lon="3.55115">
        <ele>177</ele>
        <time>2016-04-22T13:33:29Z</time>
      </trkpt>
      <trkpt lat="43.51346" lon="3.55124">
        <ele>176</ele>
        <time>2016-04-22T13:33:33Z</time>
      </trkpt>
      <trkpt lat="43.51344" lon="3.55126">
        <ele>176</ele>
        <time>2016-04-22T13:33:34Z</time>
      </trkpt>
      <trkpt lat="43.51341" lon="3.55131">
        <ele>176</ele>
        <time>2016-04-22T13:33:36Z</time>
      </trkpt>
      <trkpt lat="43.51339" lon="3.55135">
        <ele>176</ele>
        <time>2016-04-22T13:33:38Z</time>
      </trkpt>
      <trkpt lat="43.51333" lon="3.55139">
        <ele>175</ele>
        <time>2016-04-22T13:33:42Z</time>
      </trkpt>
      <trkpt lat="43.51322" lon="3.55147">
        <ele>176</ele>
        <time>2016-04-22T13:33:49Z</time>
      </trkpt>
      <trkpt lat="43.51312" lon="3.55153">
        <ele>178</ele>
        <time>2016-04-22T13:33:53Z</time>
      </trkpt>
      <trkpt lat="43.51308" lon="3.55155">
        <ele>178</ele>
        <time>2016-04-22T13:33:55Z</time>
      </trkpt>
      <trkpt lat="43.513" lon="3.55162">
        <ele>179</ele>
        <time>2016-04-22T13:33:59Z</time>
      </trkpt>
      <trkpt lat="43.5129" lon="3.55176">
        <ele>182</ele>
        <time>2016-04-22T13:34:05Z</time>
      </trkpt>
      <trkpt lat="43.51287" lon="3.5518">
        <ele>182</ele>
        <time>2016-04-22T13:34:07Z</time>
      </trkpt>
      <trkpt lat="43.51285" lon="3.55184">
        <ele>181</ele>
        <time>2016-04-22T13:34:09Z</time>
      </trkpt>
      <trkpt lat="43.51283" lon="3.55187">
        <ele>181</ele>
        <time>2016-04-22T13:34:10Z</time>
      </trkpt>
      <trkpt lat="43.51281" lon="3.55191">
        <ele>181</ele>
        <time>2016-04-22T13:34:11Z</time>
      </trkpt>
      <trkpt lat="43.51279" lon="3.55194">
        <ele>181</ele>
        <time>2016-04-22T13:34:12Z</time>
      </trkpt>
      <trkpt lat="43.51263" lon="3.55221">
        <ele>181</ele>
        <time>2016-04-22T13:34:21Z</time>
      </trkpt>
      <trkpt lat="43.51261" lon="3.55223">
        <ele>181</ele>
        <time>2016-04-22T13:34:22Z</time>
      </trkpt>
      <trkpt lat="43.51257" lon="3.55232">
        <ele>180</ele>
        <time>2016-04-22T13:34:25Z</time>
      </trkpt>
      <trkpt lat="43.51243" lon="3.55259">
        <ele>178</ele>
        <time>2016-04-22T13:34:33Z</time>
      </trkpt>
      <trkpt lat="43.5123" lon="3.5528">
        <ele>178</ele>
        <time>2016-04-22T13:34:39Z</time>
      </trkpt>
      <trkpt lat="43.5121" lon="3.5533">
        <ele>176</ele>
        <time>2016-04-22T13:34:54Z</time>
      </trkpt>
      <trkpt lat="43.512" lon="3.55351">
        <ele>179</ele>
        <time>2016-04-22T13:35:00Z</time>
      </trkpt>
      <trkpt lat="43.51198" lon="3.55354">
        <ele>179</ele>
        <time>2016-04-22T13:35:01Z</time>
      </trkpt>
      <trkpt lat="43.51191" lon="3.55364">
        <ele>180</ele>
        <time>2016-04-22T13:35:05Z</time>
      </trkpt>
      <trkpt lat="43.51187" lon="3.55365">
        <ele>180</ele>
        <time>2016-04-22T13:35:07Z</time>
      </trkpt>
      <trkpt lat="43.51183" lon="3.55365">
        <ele>180</ele>
        <time>2016-04-22T13:35:09Z</time>
      </trkpt>
      <trkpt lat="43.51176" lon="3.5536">
        <ele>181</ele>
        <time>2016-04-22T13:35:13Z</time>
      </trkpt>
      <trkpt lat="43.51173" lon="3.55357">
        <ele>182</ele>
        <time>2016-04-22T13:35:15Z</time>
      </trkpt>
      <trkpt lat="43.51169" lon="3.55354">
        <ele>181</ele>
        <time>2016-04-22T13:35:17Z</time>
      </trkpt>
      <trkpt lat="43.51153" lon="3.55343">
        <ele>182</ele>
        <time>2016-04-22T13:35:27Z</time>
      </trkpt>
      <trkpt lat="43.51112" lon="3.55322">
        <ele>189</ele>
        <time>2016-04-22T13:35:48Z</time>
      </trkpt>
      <trkpt lat="43.51101" lon="3.55315">
        <ele>189</ele>
        <time>2016-04-22T13:35:54Z</time>
      </trkpt>
      <trkpt lat="43.51094" lon="3.55312">
        <ele>189</ele>
        <time>2016-04-22T13:35:57Z</time>
      </trkpt>
      <trkpt lat="43.51092" lon="3.55311">
        <ele>189</ele>
        <time>2016-04-22T13:35:58Z</time>
      </trkpt>
      <trkpt lat="43.51079" lon="3.55303">
        <ele>190</ele>
        <time>2016-04-22T13:36:05Z</time>
      </trkpt>
      <trkpt lat="43.51075" lon="3.553">
        <ele>190</ele>
        <time>2016-04-22T13:36:07Z</time>
      </trkpt>
      <trkpt lat="43.51066" lon="3.55293">
        <ele>191</ele>
        <time>2016-04-22T13:36:12Z</time>
      </trkpt>
      <trkpt lat="43.51055" lon="3.55286">
        <ele>191</ele>
        <time>2016-04-22T13:36:17Z</time>
      </trkpt>
      <trkpt lat="43.51053" lon="3.55284">
        <ele>191</ele>
        <time>2016-04-22T13:36:18Z</time>
      </trkpt>
      <trkpt lat="43.51041" lon="3.55282">
        <ele>190</ele>
        <time>2016-04-22T13:36:24Z</time>
      </trkpt>
      <trkpt lat="43.50958" lon="3.5523">
        <ele>192</ele>
        <time>2016-04-22T13:36:55Z</time>
      </trkpt>
      <trkpt lat="43.50952" lon="3.55227">
        <ele>192</ele>
        <time>2016-04-22T13:36:57Z</time>
      </trkpt>
      <trkpt lat="43.50948" lon="3.55226">
        <ele>192</ele>
        <time>2016-04-22T13:36:58Z</time>
      </trkpt>
      <trkpt lat="43.50945" lon="3.55224">
        <ele>192</ele>
        <time>2016-04-22T13:36:59Z</time>
      </trkpt>
      <trkpt lat="43.50942" lon="3.55222">
        <ele>192</ele>
        <time>2016-04-22T13:37:00Z</time>
      </trkpt>
      <trkpt lat="43.50914" lon="3.55205">
        <ele>192</ele>
        <time>2016-04-22T13:37:08Z</time>
      </trkpt>
      <trkpt lat="43.50907" lon="3.552">
        <ele>191</ele>
        <time>2016-04-22T13:37:10Z</time>
      </trkpt>
      <trkpt lat="43.50903" lon="3.55197">
        <ele>191</ele>
        <time>2016-04-22T13:37:11Z</time>
      </trkpt>
      <trkpt lat="43.509" lon="3.55194">
        <ele>191</ele>
        <time>2016-04-22T13:37:12Z</time>
      </trkpt>
      <trkpt lat="43.50836" lon="3.55157">
        <ele>192</ele>
        <time>2016-04-22T13:37:29Z</time>
      </trkpt>
      <trkpt lat="43.50824" lon="3.55152">
        <ele>191</ele>
        <time>2016-04-22T13:37:32Z</time>
      </trkpt>
      <trkpt lat="43.50815" lon="3.5515">
        <ele>191</ele>
        <time>2016-04-22T13:37:34Z</time>
      </trkpt>
      <trkpt lat="43.50788" lon="3.5515">
        <ele>190</ele>
        <time>2016-04-22T13:37:40Z</time>
      </trkpt>
      <trkpt lat="43.50786" lon="3.55147">
        <ele>190</ele>
        <time>2016-04-22T13:37:41Z</time>
      </trkpt>
      <trkpt lat="43.50775" lon="3.55157">
        <ele>190</ele>
        <time>2016-04-22T13:37:43Z</time>
      </trkpt>
      <trkpt lat="43.50754" lon="3.5515">
        <ele>191</ele>
        <time>2016-04-22T13:37:47Z</time>
      </trkpt>
      <trkpt lat="43.50746" lon="3.55142">
        <ele>192</ele>
        <time>2016-04-22T13:37:49Z</time>
      </trkpt>
      <trkpt lat="43.50727" lon="3.55123">
        <ele>193</ele>
        <time>2016-04-22T13:37:54Z</time>
      </trkpt>
      <trkpt lat="43.50723" lon="3.5512">
        <ele>193</ele>
        <time>2016-04-22T13:37:55Z</time>
      </trkpt>
      <trkpt lat="43.50714" lon="3.55114">
        <ele>193</ele>
        <time>2016-04-22T13:37:57Z</time>
      </trkpt>
      <trkpt lat="43.50705" lon="3.55106">
        <ele>192</ele>
        <time>2016-04-22T13:37:59Z</time>
      </trkpt>
      <trkpt lat="43.50701" lon="3.55104">
        <ele>193</ele>
        <time>2016-04-22T13:38:00Z</time>
      </trkpt>
      <trkpt lat="43.50693" lon="3.55098">
        <ele>192</ele>
        <time>2016-04-22T13:38:02Z</time>
      </trkpt>
      <trkpt lat="43.50674" lon="3.55084">
        <ele>193</ele>
        <time>2016-04-22T13:38:06Z</time>
      </trkpt>
      <trkpt lat="43.5065" lon="3.55084">
        <ele>193</ele>
        <time>2016-04-22T13:38:11Z</time>
      </trkpt>
      <trkpt lat="43.50503" lon="3.55041">
        <ele>194</ele>
        <time>2016-04-22T13:38:42Z</time>
      </trkpt>
      <trkpt lat="43.50476" lon="3.55034">
        <ele>196</ele>
        <time>2016-04-22T13:38:47Z</time>
      </trkpt>
      <trkpt lat="43.50458" lon="3.5503">
        <ele>195</ele>
        <time>2016-04-22T13:38:50Z</time>
      </trkpt>
      <trkpt lat="43.50453" lon="3.55026">
        <ele>195</ele>
        <time>2016-04-22T13:38:51Z</time>
      </trkpt>
      <trkpt lat="43.50448" lon="3.55023">
        <ele>195</ele>
        <time>2016-04-22T13:38:52Z</time>
      </trkpt>
      <trkpt lat="43.50441" lon="3.55011">
        <ele>195</ele>
        <time>2016-04-22T13:38:53Z</time>
      </trkpt>
      <trkpt lat="43.50434" lon="3.55012">
        <ele>195</ele>
        <time>2016-04-22T13:38:54Z</time>
      </trkpt>
      <trkpt lat="43.50418" lon="3.55008">
        <ele>196</ele>
        <time>2016-04-22T13:38:57Z</time>
      </trkpt>
      <trkpt lat="43.50407" lon="3.55004">
        <ele>196</ele>
        <time>2016-04-22T13:38:59Z</time>
      </trkpt>
      <trkpt lat="43.50403" lon="3.55005">
        <ele>196</ele>
        <time>2016-04-22T13:39:00Z</time>
      </trkpt>
      <trkpt lat="43.50398" lon="3.55001">
        <ele>196</ele>
        <time>2016-04-22T13:39:01Z</time>
      </trkpt>
      <trkpt lat="43.50392" lon="3.55001">
        <ele>196</ele>
        <time>2016-04-22T13:39:02Z</time>
      </trkpt>
      <trkpt lat="43.50386" lon="3.54997">
        <ele>196</ele>
        <time>2016-04-22T13:39:03Z</time>
      </trkpt>
      <trkpt lat="43.50375" lon="3.54992">
        <ele>195</ele>
        <time>2016-04-22T13:39:05Z</time>
      </trkpt>
      <trkpt lat="43.50237" lon="3.54869">
        <ele>185</ele>
        <time>2016-04-22T13:39:36Z</time>
      </trkpt>
      <trkpt lat="43.50224" lon="3.54851">
        <ele>185</ele>
        <time>2016-04-22T13:39:39Z</time>
      </trkpt>
      <trkpt lat="43.502" lon="3.54818">
        <ele>183</ele>
        <time>2016-04-22T13:39:45Z</time>
      </trkpt>
      <trkpt lat="43.50184" lon="3.54815">
        <ele>182</ele>
        <time>2016-04-22T13:39:48Z</time>
      </trkpt>
      <trkpt lat="43.50159" lon="3.54825">
        <ele>181</ele>
        <time>2016-04-22T13:39:52Z</time>
      </trkpt>
      <trkpt lat="43.50154" lon="3.54823">
        <ele>182</ele>
        <time>2016-04-22T13:39:53Z</time>
      </trkpt>
      <trkpt lat="43.50134" lon="3.54819">
        <ele>181</ele>
        <time>2016-04-22T13:39:56Z</time>
      </trkpt>
      <trkpt lat="43.501" lon="3.54859">
        <ele>180</ele>
        <time>2016-04-22T13:40:02Z</time>
      </trkpt>
      <trkpt lat="43.50077" lon="3.54855">
        <ele>179</ele>
        <time>2016-04-22T13:40:05Z</time>
      </trkpt>
      <trkpt lat="43.50037" lon="3.54847">
        <ele>177</ele>
        <time>2016-04-22T13:40:10Z</time>
      </trkpt>
      <trkpt lat="43.50031" lon="3.54839">
        <ele>177</ele>
        <time>2016-04-22T13:40:11Z</time>
      </trkpt>
      <trkpt lat="43.50025" lon="3.54832">
        <ele>176</ele>
        <time>2016-04-22T13:40:12Z</time>
      </trkpt>
      <trkpt lat="43.49827" lon="3.54652">
        <ele>166</ele>
        <time>2016-04-22T13:40:43Z</time>
      </trkpt>
      <trkpt lat="43.49769" lon="3.54564">
        <ele>162</ele>
        <time>2016-04-22T13:40:56Z</time>
      </trkpt>
      <trkpt lat="43.49771" lon="3.54559">
        <ele>162</ele>
        <time>2016-04-22T13:40:57Z</time>
      </trkpt>
      <trkpt lat="43.4977" lon="3.54556">
        <ele>162</ele>
        <time>2016-04-22T13:40:58Z</time>
      </trkpt>
      <trkpt lat="43.49767" lon="3.54552">
        <ele>163</ele>
        <time>2016-04-22T13:40:59Z</time>
      </trkpt>
      <trkpt lat="43.49762" lon="3.54551">
        <ele>163</ele>
        <time>2016-04-22T13:41:00Z</time>
      </trkpt>
      <trkpt lat="43.49751" lon="3.54556">
        <ele>162</ele>
        <time>2016-04-22T13:41:03Z</time>
      </trkpt>
      <trkpt lat="43.4975" lon="3.5456">
        <ele>162</ele>
        <time>2016-04-22T13:41:04Z</time>
      </trkpt>
      <trkpt lat="43.49748" lon="3.54563">
        <ele>162</ele>
        <time>2016-04-22T13:41:05Z</time>
      </trkpt>
      <trkpt lat="43.49747" lon="3.54566">
        <ele>162</ele>
        <time>2016-04-22T13:41:06Z</time>
      </trkpt>
      <trkpt lat="43.49743" lon="3.54568">
        <ele>162</ele>
        <time>2016-04-22T13:41:08Z</time>
      </trkpt>
      <trkpt lat="43.49727" lon="3.54563">
        <ele>162</ele>
        <time>2016-04-22T13:41:13Z</time>
      </trkpt>
      <trkpt lat="43.49723" lon="3.5456">
        <ele>163</ele>
        <time>2016-04-22T13:41:14Z</time>
      </trkpt>
      <trkpt lat="43.4972" lon="3.54557">
        <ele>163</ele>
        <time>2016-04-22T13:41:15Z</time>
      </trkpt>
      <trkpt lat="43.49699" lon="3.54539">
        <ele>162</ele>
        <time>2016-04-22T13:41:23Z</time>
      </trkpt>
      <trkpt lat="43.49696" lon="3.54542">
        <ele>163</ele>
        <time>2016-04-22T13:41:55Z</time>
      </trkpt>
      <trkpt lat="43.49681" lon="3.54536">
        <ele>163</ele>
        <time>2016-04-22T13:42:01Z</time>
      </trkpt>
      <trkpt lat="43.49676" lon="3.54531">
        <ele>163</ele>
        <time>2016-04-22T13:42:03Z</time>
      </trkpt>
      <trkpt lat="43.49663" lon="3.54528">
        <ele>163</ele>
        <time>2016-04-22T13:42:08Z</time>
      </trkpt>
      <trkpt lat="43.4966" lon="3.5453">
        <ele>163</ele>
        <time>2016-04-22T13:42:09Z</time>
      </trkpt>
      <trkpt lat="43.49644" lon="3.54544">
        <ele>162</ele>
        <time>2016-04-22T13:42:14Z</time>
      </trkpt>
      <trkpt lat="43.49641" lon="3.54546">
        <ele>162</ele>
        <time>2016-04-22T13:42:15Z</time>
      </trkpt>
      <trkpt lat="43.49637" lon="3.54547">
        <ele>163</ele>
        <time>2016-04-22T13:42:16Z</time>
      </trkpt>
      <trkpt lat="43.49634" lon="3.54549">
        <ele>163</ele>
        <time>2016-04-22T13:42:17Z</time>
      </trkpt>
      <trkpt lat="43.49611" lon="3.54561">
        <ele>161</ele>
        <time>2016-04-22T13:42:22Z</time>
      </trkpt>
      <trkpt lat="43.49576" lon="3.54529">
        <ele>156</ele>
        <time>2016-04-22T13:42:30Z</time>
      </trkpt>
      <trkpt lat="43.4957" lon="3.54531">
        <ele>156</ele>
        <time>2016-04-22T13:42:31Z</time>
      </trkpt>
      <trkpt lat="43.49565" lon="3.54534">
        <ele>155</ele>
        <time>2016-04-22T13:42:32Z</time>
      </trkpt>
      <trkpt lat="43.49558" lon="3.54545">
        <ele>155</ele>
        <time>2016-04-22T13:42:34Z</time>
      </trkpt>
      <trkpt lat="43.49533" lon="3.54582">
        <ele>154</ele>
        <time>2016-04-22T13:42:43Z</time>
      </trkpt>
      <trkpt lat="43.49493" lon="3.54632">
        <ele>157</ele>
        <time>2016-04-22T13:42:59Z</time>
      </trkpt>
      <trkpt lat="43.49491" lon="3.54635">
        <ele>157</ele>
        <time>2016-04-22T13:43:00Z</time>
      </trkpt>
      <trkpt lat="43.49474" lon="3.5465">
        <ele>158</ele>
        <time>2016-04-22T13:43:07Z</time>
      </trkpt>
      <trkpt lat="43.49472" lon="3.54652">
        <ele>158</ele>
        <time>2016-04-22T13:43:08Z</time>
      </trkpt>
      <trkpt lat="43.49463" lon="3.54652">
        <ele>158</ele>
        <time>2016-04-22T13:43:11Z</time>
      </trkpt>
      <trkpt lat="43.4946" lon="3.54651">
        <ele>158</ele>
        <time>2016-04-22T13:43:12Z</time>
      </trkpt>
      <trkpt lat="43.49457" lon="3.54649">
        <ele>158</ele>
        <time>2016-04-22T13:43:13Z</time>
      </trkpt>
      <trkpt lat="43.49434" lon="3.54639">
        <ele>157</ele>
        <time>2016-04-22T13:43:22Z</time>
      </trkpt>
      <trkpt lat="43.49431" lon="3.54635">
        <ele>157</ele>
        <time>2016-04-22T13:43:24Z</time>
      </trkpt>
      <trkpt lat="43.49424" lon="3.54627">
        <ele>157</ele>
        <time>2016-04-22T13:43:28Z</time>
      </trkpt>
      <trkpt lat="43.49418" lon="3.54622">
        <ele>158</ele>
        <time>2016-04-22T13:43:31Z</time>
      </trkpt>
      <trkpt lat="43.49403" lon="3.54603">
        <ele>157</ele>
        <time>2016-04-22T13:43:37Z</time>
      </trkpt>
      <trkpt lat="43.49388" lon="3.54585">
        <ele>158</ele>
        <time>2016-04-22T13:43:43Z</time>
      </trkpt>
      <trkpt lat="43.49383" lon="3.54579">
        <ele>157</ele>
        <time>2016-04-22T13:43:45Z</time>
      </trkpt>
      <trkpt lat="43.49381" lon="3.54576">
        <ele>158</ele>
        <time>2016-04-22T13:43:46Z</time>
      </trkpt>
      <trkpt lat="43.49364" lon="3.54561">
        <ele>157</ele>
        <time>2016-04-22T13:43:52Z</time>
      </trkpt>
      <trkpt lat="43.49337" lon="3.54539">
        <ele>156</ele>
        <time>2016-04-22T13:44:00Z</time>
      </trkpt>
      <trkpt lat="43.49333" lon="3.54536">
        <ele>155</ele>
        <time>2016-04-22T13:44:01Z</time>
      </trkpt>
      <trkpt lat="43.49328" lon="3.54532">
        <ele>155</ele>
        <time>2016-04-22T13:44:02Z</time>
      </trkpt>
      <trkpt lat="43.49324" lon="3.54529">
        <ele>155</ele>
        <time>2016-04-22T13:44:03Z</time>
      </trkpt>
      <trkpt lat="43.49314" lon="3.54523">
        <ele>154</ele>
        <time>2016-04-22T13:44:05Z</time>
      </trkpt>
      <trkpt lat="43.49278" lon="3.54528">
        <ele>154</ele>
        <time>2016-04-22T13:44:12Z</time>
      </trkpt>
      <trkpt lat="43.49274" lon="3.54522">
        <ele>153</ele>
        <time>2016-04-22T13:44:13Z</time>
      </trkpt>
      <trkpt lat="43.49206" lon="3.54521">
        <ele>151</ele>
        <time>2016-04-22T13:44:33Z</time>
      </trkpt>
      <trkpt lat="43.49196" lon="3.54515">
        <ele>152</ele>
        <time>2016-04-22T13:44:39Z</time>
      </trkpt>
      <trkpt lat="43.49185" lon="3.54509">
        <ele>155</ele>
        <time>2016-04-22T13:44:45Z</time>
      </trkpt>
      <trkpt lat="43.49177" lon="3.545">
        <ele>155</ele>
        <time>2016-04-22T13:44:52Z</time>
      </trkpt>
      <trkpt lat="43.49171" lon="3.54489">
        <ele>153</ele>
        <time>2016-04-22T13:44:57Z</time>
      </trkpt>
      <trkpt lat="43.49167" lon="3.54486">
        <ele>152</ele>
        <time>2016-04-22T13:45:01Z</time>
      </trkpt>
      <trkpt lat="43.49159" lon="3.54479">
        <ele>153</ele>
        <time>2016-04-22T13:45:07Z</time>
      </trkpt>
      <trkpt lat="43.49155" lon="3.54475">
        <ele>153</ele>
        <time>2016-04-22T13:45:10Z</time>
      </trkpt>
      <trkpt lat="43.4915" lon="3.54471">
        <ele>153</ele>
        <time>2016-04-22T13:45:13Z</time>
      </trkpt>
      <trkpt lat="43.4914" lon="3.54471">
        <ele>151</ele>
        <time>2016-04-22T13:45:19Z</time>
      </trkpt>
      <trkpt lat="43.49125" lon="3.54467">
        <ele>150</ele>
        <time>2016-04-22T13:45:28Z</time>
      </trkpt>
      <trkpt lat="43.49113" lon="3.54461">
        <ele>151</ele>
        <time>2016-04-22T13:45:34Z</time>
      </trkpt>
      <trkpt lat="43.49108" lon="3.54458">
        <ele>151</ele>
        <time>2016-04-22T13:45:37Z</time>
      </trkpt>
      <trkpt lat="43.49101" lon="3.54455">
        <ele>151</ele>
        <time>2016-04-22T13:45:42Z</time>
      </trkpt>
      <trkpt lat="43.4909" lon="3.54454">
        <ele>151</ele>
        <time>2016-04-22T13:45:49Z</time>
      </trkpt>
      <trkpt lat="43.49074" lon="3.5445">
        <ele>160</ele>
        <time>2016-04-22T13:46:00Z</time>
      </trkpt>
      <trkpt lat="43.49063" lon="3.54446">
        <ele>160</ele>
        <time>2016-04-22T13:46:06Z</time>
      </trkpt>
      <trkpt lat="43.49059" lon="3.54441">
        <ele>161</ele>
        <time>2016-04-22T13:46:09Z</time>
      </trkpt>
      <trkpt lat="43.4906" lon="3.54434">
        <ele>160</ele>
        <time>2016-04-22T13:46:14Z</time>
      </trkpt>
      <trkpt lat="43.49056" lon="3.54429">
        <ele>160</ele>
        <time>2016-04-22T13:46:18Z</time>
      </trkpt>
      <trkpt lat="43.49026" lon="3.54417">
        <ele>161</ele>
        <time>2016-04-22T13:46:30Z</time>
      </trkpt>
      <trkpt lat="43.48985" lon="3.54388">
        <ele>170</ele>
        <time>2016-04-22T13:46:48Z</time>
      </trkpt>
      <trkpt lat="43.48983" lon="3.54384">
        <ele>170</ele>
        <time>2016-04-22T13:46:49Z</time>
      </trkpt>
      <trkpt lat="43.48977" lon="3.54378">
        <ele>170</ele>
        <time>2016-04-22T13:46:51Z</time>
      </trkpt>
      <trkpt lat="43.48972" lon="3.54372">
        <ele>169</ele>
        <time>2016-04-22T13:46:53Z</time>
      </trkpt>
      <trkpt lat="43.4896" lon="3.54359">
        <ele>166</ele>
        <time>2016-04-22T13:46:58Z</time>
      </trkpt>
      <trkpt lat="43.48952" lon="3.54352">
        <ele>165</ele>
        <time>2016-04-22T13:47:01Z</time>
      </trkpt>
      <trkpt lat="43.48937" lon="3.54308">
        <ele>166</ele>
        <time>2016-04-22T13:47:06Z</time>
      </trkpt>
      <trkpt lat="43.48932" lon="3.54304">
        <ele>165</ele>
        <time>2016-04-22T13:47:07Z</time>
      </trkpt>
      <trkpt lat="43.4891" lon="3.54273">
        <ele>167</ele>
        <time>2016-04-22T13:47:13Z</time>
      </trkpt>
      <trkpt lat="43.48908" lon="3.54266">
        <ele>167</ele>
        <time>2016-04-22T13:47:14Z</time>
      </trkpt>
      <trkpt lat="43.48885" lon="3.54238">
        <ele>165</ele>
        <time>2016-04-22T13:47:20Z</time>
      </trkpt>
      <trkpt lat="43.48881" lon="3.54235">
        <ele>165</ele>
        <time>2016-04-22T13:47:21Z</time>
      </trkpt>
      <trkpt lat="43.48878" lon="3.5423">
        <ele>164</ele>
        <time>2016-04-22T13:47:22Z</time>
      </trkpt>
      <trkpt lat="43.48853" lon="3.54205">
        <ele>162</ele>
        <time>2016-04-22T13:47:28Z</time>
      </trkpt>
      <trkpt lat="43.48848" lon="3.54198">
        <ele>162</ele>
        <time>2016-04-22T13:47:29Z</time>
      </trkpt>
      <trkpt lat="43.48845" lon="3.54193">
        <ele>162</ele>
        <time>2016-04-22T13:47:30Z</time>
      </trkpt>
      <trkpt lat="43.48842" lon="3.54189">
        <ele>160</ele>
        <time>2016-04-22T13:47:31Z</time>
      </trkpt>
      <trkpt lat="43.48835" lon="3.54179">
        <ele>160</ele>
        <time>2016-04-22T13:47:33Z</time>
      </trkpt>
      <trkpt lat="43.48763" lon="3.54037">
        <ele>161</ele>
        <time>2016-04-22T13:47:52Z</time>
      </trkpt>
      <trkpt lat="43.48751" lon="3.54012">
        <ele>159</ele>
        <time>2016-04-22T13:47:55Z</time>
      </trkpt>
      <trkpt lat="43.4859" lon="3.53801">
        <ele>154</ele>
        <time>2016-04-22T13:48:26Z</time>
      </trkpt>
      <trkpt lat="43.48572" lon="3.53783">
        <ele>153</ele>
        <time>2016-04-22T13:48:29Z</time>
      </trkpt>
      <trkpt lat="43.4848" lon="3.53766">
        <ele>149</ele>
        <time>2016-04-22T13:48:43Z</time>
      </trkpt>
      <trkpt lat="43.48471" lon="3.5377">
        <ele>149</ele>
        <time>2016-04-22T13:48:44Z</time>
      </trkpt>
      <trkpt lat="43.4845" lon="3.53766">
        <ele>148</ele>
        <time>2016-04-22T13:48:47Z</time>
      </trkpt>
      <trkpt lat="43.48425" lon="3.53765">
        <ele>146</ele>
        <time>2016-04-22T13:48:51Z</time>
      </trkpt>
      <trkpt lat="43.48411" lon="3.53759">
        <ele>147</ele>
        <time>2016-04-22T13:48:53Z</time>
      </trkpt>
      <trkpt lat="43.48405" lon="3.5376">
        <ele>146</ele>
        <time>2016-04-22T13:48:54Z</time>
      </trkpt>
      <trkpt lat="43.48231" lon="3.53701">
        <ele>136</ele>
        <time>2016-04-22T13:49:24Z</time>
      </trkpt>
      <trkpt lat="43.48225" lon="3.53676">
        <ele>135</ele>
        <time>2016-04-22T13:49:28Z</time>
      </trkpt>
      <trkpt lat="43.48225" lon="3.53664">
        <ele>134</ele>
        <time>2016-04-22T13:49:30Z</time>
      </trkpt>
      <trkpt lat="43.48226" lon="3.53659">
        <ele>134</ele>
        <time>2016-04-22T13:49:31Z</time>
      </trkpt>
      <trkpt lat="43.48226" lon="3.53648">
        <ele>134</ele>
        <time>2016-04-22T13:49:33Z</time>
      </trkpt>
      <trkpt lat="43.48227" lon="3.53631">
        <ele>134</ele>
        <time>2016-04-22T13:49:36Z</time>
      </trkpt>
      <trkpt lat="43.48227" lon="3.53613">
        <ele>133</ele>
        <time>2016-04-22T13:49:39Z</time>
      </trkpt>
      <trkpt lat="43.48218" lon="3.53607">
        <ele>133</ele>
        <time>2016-04-22T13:49:41Z</time>
      </trkpt>
      <trkpt lat="43.48195" lon="3.53611">
        <ele>133</ele>
        <time>2016-04-22T13:49:45Z</time>
      </trkpt>
      <trkpt lat="43.48154" lon="3.53654">
        <ele>132</ele>
        <time>2016-04-22T13:49:53Z</time>
      </trkpt>
      <trkpt lat="43.48124" lon="3.53704">
        <ele>130</ele>
        <time>2016-04-22T13:50:00Z</time>
      </trkpt>
      <trkpt lat="43.48124" lon="3.53717">
        <ele>129</ele>
        <time>2016-04-22T13:50:01Z</time>
      </trkpt>
      <trkpt lat="43.4811" lon="3.53738">
        <ele>129</ele>
        <time>2016-04-22T13:50:03Z</time>
      </trkpt>
      <trkpt lat="43.48107" lon="3.53737">
        <ele>128</ele>
        <time>2016-04-22T13:50:04Z</time>
      </trkpt>
      <trkpt lat="43.48101" lon="3.53743">
        <ele>128</ele>
        <time>2016-04-22T13:50:05Z</time>
      </trkpt>
      <trkpt lat="43.48098" lon="3.53753">
        <ele>128</ele>
        <time>2016-04-22T13:50:06Z</time>
      </trkpt>
      <trkpt lat="43.48069" lon="3.53777">
        <ele>127</ele>
        <time>2016-04-22T13:50:10Z</time>
      </trkpt>
      <trkpt lat="43.48063" lon="3.53778">
        <ele>127</ele>
        <time>2016-04-22T13:50:11Z</time>
      </trkpt>
      <trkpt lat="43.48033" lon="3.53802">
        <ele>124</ele>
        <time>2016-04-22T13:50:16Z</time>
      </trkpt>
      <trkpt lat="43.47994" lon="3.53841">
        <ele>123</ele>
        <time>2016-04-22T13:50:27Z</time>
      </trkpt>
      <trkpt lat="43.47989" lon="3.53839">
        <ele>123</ele>
        <time>2016-04-22T13:50:29Z</time>
      </trkpt>
      <trkpt lat="43.47987" lon="3.53837">
        <ele>122</ele>
        <time>2016-04-22T13:50:31Z</time>
      </trkpt>
      <trkpt lat="43.47985" lon="3.53828">
        <ele>121</ele>
        <time>2016-04-22T13:50:35Z</time>
      </trkpt>
      <trkpt lat="43.47982" lon="3.53822">
        <ele>121</ele>
        <time>2016-04-22T13:50:37Z</time>
      </trkpt>
      <trkpt lat="43.47977" lon="3.53818">
        <ele>122</ele>
        <time>2016-04-22T13:50:39Z</time>
      </trkpt>
      <trkpt lat="43.47975" lon="3.53816">
        <ele>122</ele>
        <time>2016-04-22T13:50:40Z</time>
      </trkpt>
      <trkpt lat="43.47969" lon="3.53813">
        <ele>122</ele>
        <time>2016-04-22T13:50:43Z</time>
      </trkpt>
      <trkpt lat="43.47965" lon="3.53813">
        <ele>122</ele>
        <time>2016-04-22T13:50:45Z</time>
      </trkpt>
      <trkpt lat="43.47953" lon="3.5381">
        <ele>119</ele>
        <time>2016-04-22T13:50:51Z</time>
      </trkpt>
      <trkpt lat="43.4795" lon="3.53806">
        <ele>117</ele>
        <time>2016-04-22T13:50:53Z</time>
      </trkpt>
      <trkpt lat="43.4795" lon="3.53811">
        <ele>116</ele>
        <time>2016-04-22T13:51:02Z</time>
      </trkpt>
      <trkpt lat="43.47955" lon="3.53809">
        <ele>116</ele>
        <time>2016-04-22T13:51:04Z</time>
      </trkpt>
      <trkpt lat="43.47962" lon="3.53804">
        <ele>116</ele>
        <time>2016-04-22T13:51:06Z</time>
      </trkpt>
      <trkpt lat="43.47973" lon="3.53798">
        <ele>117</ele>
        <time>2016-04-22T13:51:11Z</time>
      </trkpt>
      <trkpt lat="43.47984" lon="3.53781">
        <ele>115</ele>
        <time>2016-04-22T13:51:20Z</time>
      </trkpt>
      <trkpt lat="43.47985" lon="3.53767">
        <ele>114</ele>
        <time>2016-04-22T13:51:24Z</time>
      </trkpt>
      <trkpt lat="43.47986" lon="3.53765">
        <ele>114</ele>
        <time>2016-04-22T13:51:25Z</time>
      </trkpt>
      <trkpt lat="43.47988" lon="3.53762">
        <ele>114</ele>
        <time>2016-04-22T13:51:26Z</time>
      </trkpt>
      <trkpt lat="43.47991" lon="3.5376">
        <ele>114</ele>
        <time>2016-04-22T13:51:27Z</time>
      </trkpt>
      <trkpt lat="43.48001" lon="3.53755">
        <ele>115</ele>
        <time>2016-04-22T13:51:30Z</time>
      </trkpt>
      <trkpt lat="43.48007" lon="3.53751">
        <ele>116</ele>
        <time>2016-04-22T13:51:33Z</time>
      </trkpt>
      <trkpt lat="43.48012" lon="3.53748">
        <ele>116</ele>
        <time>2016-04-22T13:51:35Z</time>
      </trkpt>
      <trkpt lat="43.48014" lon="3.53747">
        <ele>116</ele>
        <time>2016-04-22T13:51:36Z</time>
      </trkpt>
      <trkpt lat="43.48018" lon="3.53743">
        <ele>116</ele>
        <time>2016-04-22T13:51:38Z</time>
      </trkpt>
      <trkpt lat="43.48024" lon="3.53737">
        <ele>115</ele>
        <time>2016-04-22T13:51:41Z</time>
      </trkpt>
      <trkpt lat="43.48031" lon="3.5373">
        <ele>115</ele>
        <time>2016-04-22T13:51:44Z</time>
      </trkpt>
      <trkpt lat="43.48035" lon="3.53726">
        <ele>115</ele>
        <time>2016-04-22T13:51:46Z</time>
      </trkpt>
      <trkpt lat="43.48071" lon="3.53698">
        <ele>119</ele>
        <time>2016-04-22T13:52:02Z</time>
      </trkpt>
      <trkpt lat="43.48078" lon="3.53695">
        <ele>117</ele>
        <time>2016-04-22T13:52:05Z</time>
      </trkpt>
      <trkpt lat="43.48086" lon="3.5369">
        <ele>117</ele>
        <time>2016-04-22T13:52:08Z</time>
      </trkpt>
      <trkpt lat="43.48097" lon="3.53677">
        <ele>118</ele>
        <time>2016-04-22T13:52:14Z</time>
      </trkpt>
      <trkpt lat="43.481" lon="3.53672">
        <ele>118</ele>
        <time>2016-04-22T13:52:16Z</time>
      </trkpt>
      <trkpt lat="43.48106" lon="3.53664">
        <ele>118</ele>
        <time>2016-04-22T13:52:19Z</time>
      </trkpt>
      <trkpt lat="43.48129" lon="3.53621">
        <ele>116</ele>
        <time>2016-04-22T13:52:32Z</time>
      </trkpt>
      <trkpt lat="43.48148" lon="3.53603">
        <ele>119</ele>
        <time>2016-04-22T13:52:41Z</time>
      </trkpt>
      <trkpt lat="43.48171" lon="3.53576">
        <ele>117</ele>
        <time>2016-04-22T13:52:52Z</time>
      </trkpt>
      <trkpt lat="43.48194" lon="3.53542">
        <ele>120</ele>
        <time>2016-04-22T13:53:04Z</time>
      </trkpt>
      <trkpt lat="43.48205" lon="3.53525">
        <ele>118</ele>
        <time>2016-04-22T13:53:10Z</time>
      </trkpt>
      <trkpt lat="43.48209" lon="3.53526">
        <ele>119</ele>
        <time>2016-04-22T13:53:12Z</time>
      </trkpt>
      <trkpt lat="43.48215" lon="3.53533">
        <ele>121</ele>
        <time>2016-04-22T13:53:16Z</time>
      </trkpt>
      <trkpt lat="43.48218" lon="3.53538">
        <ele>121</ele>
        <time>2016-04-22T13:53:18Z</time>
      </trkpt>
      <trkpt lat="43.48231" lon="3.53548">
        <ele>119</ele>
        <time>2016-04-22T13:53:25Z</time>
      </trkpt>
      <trkpt lat="43.48237" lon="3.5355">
        <ele>119</ele>
        <time>2016-04-22T13:53:28Z</time>
      </trkpt>
      <trkpt lat="43.4824" lon="3.53551">
        <ele>119</ele>
        <time>2016-04-22T13:53:29Z</time>
      </trkpt>
      <trkpt lat="43.48258" lon="3.53541">
        <ele>122</ele>
        <time>2016-04-22T13:53:36Z</time>
      </trkpt>
      <trkpt lat="43.48271" lon="3.5356">
        <ele>124</ele>
        <time>2016-04-22T13:53:45Z</time>
      </trkpt>
      <trkpt lat="43.48297" lon="3.5358">
        <ele>130</ele>
        <time>2016-04-22T13:53:56Z</time>
      </trkpt>
      <trkpt lat="43.48323" lon="3.53565">
        <ele>136</ele>
        <time>2016-04-22T13:54:06Z</time>
      </trkpt>
      <trkpt lat="43.48332" lon="3.53563">
        <ele>136</ele>
        <time>2016-04-22T13:54:09Z</time>
      </trkpt>
      <trkpt lat="43.48341" lon="3.53561">
        <ele>136</ele>
        <time>2016-04-22T13:54:12Z</time>
      </trkpt>
      <trkpt lat="43.48349" lon="3.5356">
        <ele>136</ele>
        <time>2016-04-22T13:54:15Z</time>
      </trkpt>
      <trkpt lat="43.48351" lon="3.5356">
        <ele>137</ele>
        <time>2016-04-22T13:54:16Z</time>
      </trkpt>
      <trkpt lat="43.48354" lon="3.5356">
        <ele>137</ele>
        <time>2016-04-22T13:54:17Z</time>
      </trkpt>
      <trkpt lat="43.48357" lon="3.5356">
        <ele>137</ele>
        <time>2016-04-22T13:54:18Z</time>
      </trkpt>
      <trkpt lat="43.48372" lon="3.53557">
        <ele>135</ele>
        <time>2016-04-22T13:54:23Z</time>
      </trkpt>
      <trkpt lat="43.48377" lon="3.53556">
        <ele>136</ele>
        <time>2016-04-22T13:54:25Z</time>
      </trkpt>
      <trkpt lat="43.4838" lon="3.53555">
        <ele>135</ele>
        <time>2016-04-22T13:54:26Z</time>
      </trkpt>
      <trkpt lat="43.48383" lon="3.53554">
        <ele>135</ele>
        <time>2016-04-22T13:54:27Z</time>
      </trkpt>
      <trkpt lat="43.48393" lon="3.53554">
        <ele>135</ele>
        <time>2016-04-22T13:54:30Z</time>
      </trkpt>
      <trkpt lat="43.48399" lon="3.53554">
        <ele>135</ele>
        <time>2016-04-22T13:54:32Z</time>
      </trkpt>
      <trkpt lat="43.48412" lon="3.53552">
        <ele>136</ele>
        <time>2016-04-22T13:54:36Z</time>
      </trkpt>
      <trkpt lat="43.48422" lon="3.53551">
        <ele>136</ele>
        <time>2016-04-22T13:54:39Z</time>
      </trkpt>
      <trkpt lat="43.48429" lon="3.5355">
        <ele>136</ele>
        <time>2016-04-22T13:54:41Z</time>
      </trkpt>
      <trkpt lat="43.48433" lon="3.5355">
        <ele>137</ele>
        <time>2016-04-22T13:54:42Z</time>
      </trkpt>
      <trkpt lat="43.48439" lon="3.53548">
        <ele>137</ele>
        <time>2016-04-22T13:54:44Z</time>
      </trkpt>
      <trkpt lat="43.48442" lon="3.53546">
        <ele>137</ele>
        <time>2016-04-22T13:54:45Z</time>
      </trkpt>
      <trkpt lat="43.48448" lon="3.53546">
        <ele>137</ele>
        <time>2016-04-22T13:54:47Z</time>
      </trkpt>
      <trkpt lat="43.48451" lon="3.53545">
        <ele>137</ele>
        <time>2016-04-22T13:54:48Z</time>
      </trkpt>
      <trkpt lat="43.48457" lon="3.53543">
        <ele>137</ele>
        <time>2016-04-22T13:54:50Z</time>
      </trkpt>
      <trkpt lat="43.48466" lon="3.5354">
        <ele>138</ele>
        <time>2016-04-22T13:54:53Z</time>
      </trkpt>
      <trkpt lat="43.48469" lon="3.5354">
        <ele>138</ele>
        <time>2016-04-22T13:54:54Z</time>
      </trkpt>
      <trkpt lat="43.48489" lon="3.53535">
        <ele>137</ele>
        <time>2016-04-22T13:55:02Z</time>
      </trkpt>
      <trkpt lat="43.48494" lon="3.53534">
        <ele>137</ele>
        <time>2016-04-22T13:55:04Z</time>
      </trkpt>
      <trkpt lat="43.48532" lon="3.53541">
        <ele>139</ele>
        <time>2016-04-22T13:55:18Z</time>
      </trkpt>
      <trkpt lat="43.48544" lon="3.53553">
        <ele>138</ele>
        <time>2016-04-22T13:55:23Z</time>
      </trkpt>
      <trkpt lat="43.48549" lon="3.53558">
        <ele>139</ele>
        <time>2016-04-22T13:55:25Z</time>
      </trkpt>
      <trkpt lat="43.48551" lon="3.5356">
        <ele>138</ele>
        <time>2016-04-22T13:55:26Z</time>
      </trkpt>
      <trkpt lat="43.4856" lon="3.5357">
        <ele>139</ele>
        <time>2016-04-22T13:55:30Z</time>
      </trkpt>
      <trkpt lat="43.48563" lon="3.53573">
        <ele>139</ele>
        <time>2016-04-22T13:55:31Z</time>
      </trkpt>
      <trkpt lat="43.48576" lon="3.53585">
        <ele>137</ele>
        <time>2016-04-22T13:55:36Z</time>
      </trkpt>
      <trkpt lat="43.48578" lon="3.53588">
        <ele>137</ele>
        <time>2016-04-22T13:55:37Z</time>
      </trkpt>
      <trkpt lat="43.48583" lon="3.53593">
        <ele>137</ele>
        <time>2016-04-22T13:55:39Z</time>
      </trkpt>
      <trkpt lat="43.48604" lon="3.5361">
        <ele>138</ele>
        <time>2016-04-22T13:55:46Z</time>
      </trkpt>
      <trkpt lat="43.48606" lon="3.53613">
        <ele>138</ele>
        <time>2016-04-22T13:55:47Z</time>
      </trkpt>
      <trkpt lat="43.48613" lon="3.53617">
        <ele>138</ele>
        <time>2016-04-22T13:55:49Z</time>
      </trkpt>
      <trkpt lat="43.48638" lon="3.53629">
        <ele>141</ele>
        <time>2016-04-22T13:55:57Z</time>
      </trkpt>
      <trkpt lat="43.48642" lon="3.5363">
        <ele>140</ele>
        <time>2016-04-22T13:55:58Z</time>
      </trkpt>
      <trkpt lat="43.48657" lon="3.53633">
        <ele>139</ele>
        <time>2016-04-22T13:56:02Z</time>
      </trkpt>
      <trkpt lat="43.48708" lon="3.53629">
        <ele>141</ele>
        <time>2016-04-22T13:56:15Z</time>
      </trkpt>
      <trkpt lat="43.48712" lon="3.53628">
        <ele>141</ele>
        <time>2016-04-22T13:56:16Z</time>
      </trkpt>
      <trkpt lat="43.48718" lon="3.53623">
        <ele>141</ele>
        <time>2016-04-22T13:56:18Z</time>
      </trkpt>
      <trkpt lat="43.48721" lon="3.53618">
        <ele>141</ele>
        <time>2016-04-22T13:56:19Z</time>
      </trkpt>
      <trkpt lat="43.48751" lon="3.53602">
        <ele>146</ele>
        <time>2016-04-22T13:56:27Z</time>
      </trkpt>
      <trkpt lat="43.48926" lon="3.53514">
        <ele>128</ele>
        <time>2016-04-22T13:56:58Z</time>
      </trkpt>
      <trkpt lat="43.4893" lon="3.53508">
        <ele>128</ele>
        <time>2016-04-22T13:56:59Z</time>
      </trkpt>
      <trkpt lat="43.48947" lon="3.53491">
        <ele>126</ele>
        <time>2016-04-22T13:57:02Z</time>
      </trkpt>
      <trkpt lat="43.48952" lon="3.53485">
        <ele>126</ele>
        <time>2016-04-22T13:57:03Z</time>
      </trkpt>
      <trkpt lat="43.48992" lon="3.53432">
        <ele>122</ele>
        <time>2016-04-22T13:57:12Z</time>
      </trkpt>
      <trkpt lat="43.49004" lon="3.53405">
        <ele>123</ele>
        <time>2016-04-22T13:57:16Z</time>
      </trkpt>
      <trkpt lat="43.4901" lon="3.53376">
        <ele>121</ele>
        <time>2016-04-22T13:57:21Z</time>
      </trkpt>
      <trkpt lat="43.49013" lon="3.53371">
        <ele>122</ele>
        <time>2016-04-22T13:57:22Z</time>
      </trkpt>
      <trkpt lat="43.49012" lon="3.53366">
        <ele>121</ele>
        <time>2016-04-22T13:57:23Z</time>
      </trkpt>
      <trkpt lat="43.49011" lon="3.53352">
        <ele>121</ele>
        <time>2016-04-22T13:57:26Z</time>
      </trkpt>
      <trkpt lat="43.49008" lon="3.53346">
        <ele>120</ele>
        <time>2016-04-22T13:57:28Z</time>
      </trkpt>
      <trkpt lat="43.49005" lon="3.53338">
        <ele>121</ele>
        <time>2016-04-22T13:57:30Z</time>
      </trkpt>
      <trkpt lat="43.49004" lon="3.5333">
        <ele>121</ele>
        <time>2016-04-22T13:57:31Z</time>
      </trkpt>
      <trkpt lat="43.49001" lon="3.53326">
        <ele>121</ele>
        <time>2016-04-22T13:57:33Z</time>
      </trkpt>
      <trkpt lat="43.49001" lon="3.53321">
        <ele>121</ele>
        <time>2016-04-22T13:57:34Z</time>
      </trkpt>
      <trkpt lat="43.49" lon="3.53308">
        <ele>122</ele>
        <time>2016-04-22T13:57:37Z</time>
      </trkpt>
      <trkpt lat="43.48999" lon="3.53305">
        <ele>122</ele>
        <time>2016-04-22T13:57:38Z</time>
      </trkpt>
      <trkpt lat="43.48997" lon="3.53298">
        <ele>122</ele>
        <time>2016-04-22T13:57:40Z</time>
      </trkpt>
      <trkpt lat="43.48995" lon="3.53294">
        <ele>122</ele>
        <time>2016-04-22T13:57:41Z</time>
      </trkpt>
      <trkpt lat="43.48993" lon="3.53287">
        <ele>121</ele>
        <time>2016-04-22T13:57:43Z</time>
      </trkpt>
      <trkpt lat="43.48994" lon="3.53283">
        <ele>120</ele>
        <time>2016-04-22T13:57:44Z</time>
      </trkpt>
      <trkpt lat="43.48993" lon="3.5328">
        <ele>120</ele>
        <time>2016-04-22T13:57:45Z</time>
      </trkpt>
      <trkpt lat="43.4901" lon="3.53252">
        <ele>122</ele>
        <time>2016-04-22T13:57:52Z</time>
      </trkpt>
      <trkpt lat="43.49026" lon="3.53239">
        <ele>121</ele>
        <time>2016-04-22T13:57:54Z</time>
      </trkpt>
      <trkpt lat="43.49036" lon="3.5324">
        <ele>121</ele>
        <time>2016-04-22T13:57:56Z</time>
      </trkpt>
      <trkpt lat="43.49044" lon="3.53218">
        <ele>122</ele>
        <time>2016-04-22T13:57:58Z</time>
      </trkpt>
      <trkpt lat="43.49051" lon="3.53201">
        <ele>122</ele>
        <time>2016-04-22T13:58:00Z</time>
      </trkpt>
      <trkpt lat="43.49052" lon="3.53193">
        <ele>122</ele>
        <time>2016-04-22T13:58:01Z</time>
      </trkpt>
      <trkpt lat="43.49049" lon="3.53185">
        <ele>122</ele>
        <time>2016-04-22T13:58:02Z</time>
      </trkpt>
      <trkpt lat="43.49033" lon="3.53144">
        <ele>121</ele>
        <time>2016-04-22T13:58:07Z</time>
      </trkpt>
      <trkpt lat="43.4903" lon="3.53133">
        <ele>121</ele>
        <time>2016-04-22T13:58:08Z</time>
      </trkpt>
      <trkpt lat="43.48994" lon="3.53039">
        <ele>119</ele>
        <time>2016-04-22T13:58:20Z</time>
      </trkpt>
      <trkpt lat="43.49001" lon="3.53035">
        <ele>119</ele>
        <time>2016-04-22T13:58:21Z</time>
      </trkpt>
      <trkpt lat="43.49" lon="3.53026">
        <ele>119</ele>
        <time>2016-04-22T13:58:22Z</time>
      </trkpt>
      <trkpt lat="43.48997" lon="3.52987">
        <ele>121</ele>
        <time>2016-04-22T13:58:28Z</time>
      </trkpt>
      <trkpt lat="43.48999" lon="3.5296">
        <ele>118</ele>
        <time>2016-04-22T13:58:32Z</time>
      </trkpt>
      <trkpt lat="43.48997" lon="3.5295">
        <ele>117</ele>
        <time>2016-04-22T13:58:33Z</time>
      </trkpt>
      <trkpt lat="43.48997" lon="3.52935">
        <ele>117</ele>
        <time>2016-04-22T13:58:35Z</time>
      </trkpt>
      <trkpt lat="43.48996" lon="3.52928">
        <ele>117</ele>
        <time>2016-04-22T13:58:36Z</time>
      </trkpt>
      <trkpt lat="43.48997" lon="3.52917">
        <ele>117</ele>
        <time>2016-04-22T13:58:37Z</time>
      </trkpt>
      <trkpt lat="43.49004" lon="3.5288">
        <ele>114</ele>
        <time>2016-04-22T13:58:41Z</time>
      </trkpt>
      <trkpt lat="43.49005" lon="3.52872">
        <ele>113</ele>
        <time>2016-04-22T13:58:42Z</time>
      </trkpt>
      <trkpt lat="43.49007" lon="3.52863">
        <ele>112</ele>
        <time>2016-04-22T13:58:43Z</time>
      </trkpt>
      <trkpt lat="43.49005" lon="3.52856">
        <ele>112</ele>
        <time>2016-04-22T13:58:44Z</time>
      </trkpt>
      <trkpt lat="43.49007" lon="3.52845">
        <ele>112</ele>
        <time>2016-04-22T13:58:45Z</time>
      </trkpt>
      <trkpt lat="43.49007" lon="3.5283">
        <ele>111</ele>
        <time>2016-04-22T13:58:47Z</time>
      </trkpt>
      <trkpt lat="43.49007" lon="3.52821">
        <ele>110</ele>
        <time>2016-04-22T13:58:48Z</time>
      </trkpt>
      <trkpt lat="43.49017" lon="3.52802">
        <ele>110</ele>
        <time>2016-04-22T13:58:50Z</time>
      </trkpt>
      <trkpt lat="43.49032" lon="3.52752">
        <ele>108</ele>
        <time>2016-04-22T13:58:57Z</time>
      </trkpt>
      <trkpt lat="43.49045" lon="3.52648">
        <ele>108</ele>
        <time>2016-04-22T13:59:09Z</time>
      </trkpt>
      <trkpt lat="43.4905" lon="3.52642">
        <ele>108</ele>
        <time>2016-04-22T13:59:10Z</time>
      </trkpt>
      <trkpt lat="43.49055" lon="3.52638">
        <ele>108</ele>
        <time>2016-04-22T13:59:11Z</time>
      </trkpt>
      <trkpt lat="43.49058" lon="3.52638">
        <ele>109</ele>
        <time>2016-04-22T13:59:12Z</time>
      </trkpt>
      <trkpt lat="43.49067" lon="3.52632">
        <ele>109</ele>
        <time>2016-04-22T13:59:14Z</time>
      </trkpt>
      <trkpt lat="43.49071" lon="3.52634">
        <ele>109</ele>
        <time>2016-04-22T13:59:15Z</time>
      </trkpt>
      <trkpt lat="43.49072" lon="3.52652">
        <ele>109</ele>
        <time>2016-04-22T13:59:17Z</time>
      </trkpt>
      <trkpt lat="43.49075" lon="3.52659">
        <ele>109</ele>
        <time>2016-04-22T13:59:19Z</time>
      </trkpt>
      <trkpt lat="43.49078" lon="3.52661">
        <ele>109</ele>
        <time>2016-04-22T13:59:20Z</time>
      </trkpt>
      <trkpt lat="43.4908" lon="3.52667">
        <ele>109</ele>
        <time>2016-04-22T13:59:21Z</time>
      </trkpt>
      <trkpt lat="43.49084" lon="3.52672">
        <ele>109</ele>
        <time>2016-04-22T13:59:22Z</time>
      </trkpt>
      <trkpt lat="43.49084" lon="3.52676">
        <ele>109</ele>
        <time>2016-04-22T13:59:23Z</time>
      </trkpt>
      <trkpt lat="43.49086" lon="3.52679">
        <ele>109</ele>
        <time>2016-04-22T13:59:24Z</time>
      </trkpt>
      <trkpt lat="43.49087" lon="3.52683">
        <ele>108</ele>
        <time>2016-04-22T13:59:25Z</time>
      </trkpt>
      <trkpt lat="43.49127" lon="3.52742">
        <ele>103</ele>
        <time>2016-04-22T13:59:37Z</time>
      </trkpt>
      <trkpt lat="43.49132" lon="3.52744">
        <ele>103</ele>
        <time>2016-04-22T13:59:38Z</time>
      </trkpt>
      <trkpt lat="43.49132" lon="3.5275">
        <ele>103</ele>
        <time>2016-04-22T13:59:39Z</time>
      </trkpt>
      <trkpt lat="43.49156" lon="3.52844">
        <ele>112</ele>
        <time>2016-04-22T14:00:02Z</time>
      </trkpt>
      <trkpt lat="43.49158" lon="3.52848">
        <ele>112</ele>
        <time>2016-04-22T14:00:03Z</time>
      </trkpt>
      <trkpt lat="43.49162" lon="3.5286">
        <ele>112</ele>
        <time>2016-04-22T14:00:06Z</time>
      </trkpt>
      <trkpt lat="43.49164" lon="3.52868">
        <ele>112</ele>
        <time>2016-04-22T14:00:08Z</time>
      </trkpt>
      <trkpt lat="43.49166" lon="3.52871">
        <ele>112</ele>
        <time>2016-04-22T14:00:09Z</time>
      </trkpt>
      <trkpt lat="43.4917" lon="3.52882">
        <ele>111</ele>
        <time>2016-04-22T14:00:12Z</time>
      </trkpt>
      <trkpt lat="43.49207" lon="3.53002">
        <ele>116</ele>
        <time>2016-04-22T14:00:42Z</time>
      </trkpt>
      <trkpt lat="43.49214" lon="3.53017">
        <ele>117</ele>
        <time>2016-04-22T14:00:46Z</time>
      </trkpt>
      <trkpt lat="43.49223" lon="3.53035">
        <ele>118</ele>
        <time>2016-04-22T14:00:51Z</time>
      </trkpt>
      <trkpt lat="43.49232" lon="3.53047">
        <ele>119</ele>
        <time>2016-04-22T14:00:56Z</time>
      </trkpt>
      <trkpt lat="43.49234" lon="3.53048">
        <ele>119</ele>
        <time>2016-04-22T14:00:57Z</time>
      </trkpt>
      <trkpt lat="43.49238" lon="3.53045">
        <ele>118</ele>
        <time>2016-04-22T14:00:59Z</time>
      </trkpt>
      <trkpt lat="43.49241" lon="3.53043">
        <ele>118</ele>
        <time>2016-04-22T14:01:00Z</time>
      </trkpt>
      <trkpt lat="43.49243" lon="3.53039">
        <ele>118</ele>
        <time>2016-04-22T14:01:01Z</time>
      </trkpt>
      <trkpt lat="43.49251" lon="3.5303">
        <ele>117</ele>
        <time>2016-04-22T14:01:04Z</time>
      </trkpt>
      <trkpt lat="43.49302" lon="3.52986">
        <ele>108</ele>
        <time>2016-04-22T14:01:23Z</time>
      </trkpt>
      <trkpt lat="43.49305" lon="3.52983">
        <ele>109</ele>
        <time>2016-04-22T14:01:24Z</time>
      </trkpt>
      <trkpt lat="43.49307" lon="3.5298">
        <ele>108</ele>
        <time>2016-04-22T14:01:25Z</time>
      </trkpt>
      <trkpt lat="43.49318" lon="3.52971">
        <ele>109</ele>
        <time>2016-04-22T14:01:29Z</time>
      </trkpt>
      <trkpt lat="43.49332" lon="3.52965">
        <ele>108</ele>
        <time>2016-04-22T14:01:34Z</time>
      </trkpt>
      <trkpt lat="43.4934" lon="3.52962">
        <ele>109</ele>
        <time>2016-04-22T14:01:37Z</time>
      </trkpt>
      <trkpt lat="43.49343" lon="3.52962">
        <ele>109</ele>
        <time>2016-04-22T14:01:38Z</time>
      </trkpt>
      <trkpt lat="43.49346" lon="3.52961">
        <ele>109</ele>
        <time>2016-04-22T14:01:39Z</time>
      </trkpt>
      <trkpt lat="43.49366" lon="3.52954">
        <ele>110</ele>
        <time>2016-04-22T14:01:47Z</time>
      </trkpt>
      <trkpt lat="43.49381" lon="3.52948">
        <ele>110</ele>
        <time>2016-04-22T14:01:52Z</time>
      </trkpt>
      <trkpt lat="43.49404" lon="3.52943">
        <ele>105</ele>
        <time>2016-04-22T14:01:59Z</time>
      </trkpt>
      <trkpt lat="43.49421" lon="3.52938">
        <ele>105</ele>
        <time>2016-04-22T14:02:04Z</time>
      </trkpt>
      <trkpt lat="43.49431" lon="3.52926">
        <ele>107</ele>
        <time>2016-04-22T14:02:08Z</time>
      </trkpt>
      <trkpt lat="43.49436" lon="3.5292">
        <ele>107</ele>
        <time>2016-04-22T14:02:10Z</time>
      </trkpt>
      <trkpt lat="43.49439" lon="3.52917">
        <ele>107</ele>
        <time>2016-04-22T14:02:11Z</time>
      </trkpt>
      <trkpt lat="43.49444" lon="3.52912">
        <ele>107</ele>
        <time>2016-04-22T14:02:13Z</time>
      </trkpt>
      <trkpt lat="43.49454" lon="3.52898">
        <ele>110</ele>
        <time>2016-04-22T14:02:18Z</time>
      </trkpt>
      <trkpt lat="43.49463" lon="3.5289">
        <ele>108</ele>
        <time>2016-04-22T14:02:22Z</time>
      </trkpt>
      <trkpt lat="43.49477" lon="3.52874">
        <ele>108</ele>
        <time>2016-04-22T14:02:29Z</time>
      </trkpt>
      <trkpt lat="43.4948" lon="3.5287">
        <ele>108</ele>
        <time>2016-04-22T14:02:30Z</time>
      </trkpt>
      <trkpt lat="43.49531" lon="3.52842">
        <ele>115</ele>
        <time>2016-04-22T14:02:50Z</time>
      </trkpt>
      <trkpt lat="43.49531" lon="3.52837">
        <ele>113</ele>
        <time>2016-04-22T14:03:10Z</time>
      </trkpt>
      <trkpt lat="43.49534" lon="3.52836">
        <ele>115</ele>
        <time>2016-04-22T14:04:04Z</time>
      </trkpt>
      <trkpt lat="43.49594" lon="3.52806">
        <ele>125</ele>
        <time>2016-04-22T14:04:28Z</time>
      </trkpt>
      <trkpt lat="43.49597" lon="3.52804">
        <ele>125</ele>
        <time>2016-04-22T14:04:29Z</time>
      </trkpt>
      <trkpt lat="43.49613" lon="3.5279">
        <ele>125</ele>
        <time>2016-04-22T14:04:35Z</time>
      </trkpt>
      <trkpt lat="43.49619" lon="3.52786">
        <ele>124</ele>
        <time>2016-04-22T14:04:37Z</time>
      </trkpt>
      <trkpt lat="43.49621" lon="3.52784">
        <ele>124</ele>
        <time>2016-04-22T14:04:38Z</time>
      </trkpt>
      <trkpt lat="43.49629" lon="3.5278">
        <ele>125</ele>
        <time>2016-04-22T14:04:41Z</time>
      </trkpt>
      <trkpt lat="43.49636" lon="3.52775">
        <ele>124</ele>
        <time>2016-04-22T14:04:44Z</time>
      </trkpt>
      <trkpt lat="43.49639" lon="3.52773">
        <ele>124</ele>
        <time>2016-04-22T14:04:45Z</time>
      </trkpt>
      <trkpt lat="43.49641" lon="3.52772">
        <ele>124</ele>
        <time>2016-04-22T14:04:46Z</time>
      </trkpt>
      <trkpt lat="43.4966" lon="3.52757">
        <ele>123</ele>
        <time>2016-04-22T14:04:54Z</time>
      </trkpt>
      <trkpt lat="43.49667" lon="3.52753">
        <ele>121</ele>
        <time>2016-04-22T14:04:57Z</time>
      </trkpt>
      <trkpt lat="43.4967" lon="3.52751">
        <ele>121</ele>
        <time>2016-04-22T14:04:58Z</time>
      </trkpt>
      <trkpt lat="43.49675" lon="3.52747">
        <ele>120</ele>
        <time>2016-04-22T14:05:00Z</time>
      </trkpt>
      <trkpt lat="43.49683" lon="3.52743">
        <ele>120</ele>
        <time>2016-04-22T14:05:03Z</time>
      </trkpt>
      <trkpt lat="43.497" lon="3.52733">
        <ele>122</ele>
        <time>2016-04-22T14:05:09Z</time>
      </trkpt>
      <trkpt lat="43.49708" lon="3.52728">
        <ele>124</ele>
        <time>2016-04-22T14:05:12Z</time>
      </trkpt>
      <trkpt lat="43.49711" lon="3.52726">
        <ele>124</ele>
        <time>2016-04-22T14:05:13Z</time>
      </trkpt>
      <trkpt lat="43.49717" lon="3.52723">
        <ele>125</ele>
        <time>2016-04-22T14:05:15Z</time>
      </trkpt>
      <trkpt lat="43.4972" lon="3.52722">
        <ele>125</ele>
        <time>2016-04-22T14:05:16Z</time>
      </trkpt>
      <trkpt lat="43.49731" lon="3.52717">
        <ele>125</ele>
        <time>2016-04-22T14:05:20Z</time>
      </trkpt>
      <trkpt lat="43.49736" lon="3.52714">
        <ele>125</ele>
        <time>2016-04-22T14:05:22Z</time>
      </trkpt>
      <trkpt lat="43.49739" lon="3.52711">
        <ele>125</ele>
        <time>2016-04-22T14:05:23Z</time>
      </trkpt>
      <trkpt lat="43.49753" lon="3.52702">
        <ele>127</ele>
        <time>2016-04-22T14:05:28Z</time>
      </trkpt>
      <trkpt lat="43.49759" lon="3.52698">
        <ele>127</ele>
        <time>2016-04-22T14:05:30Z</time>
      </trkpt>
      <trkpt lat="43.49774" lon="3.52693">
        <ele>128</ele>
        <time>2016-04-22T14:05:35Z</time>
      </trkpt>
      <trkpt lat="43.49783" lon="3.52691">
        <ele>128</ele>
        <time>2016-04-22T14:05:38Z</time>
      </trkpt>
      <trkpt lat="43.49793" lon="3.52687">
        <ele>128</ele>
        <time>2016-04-22T14:05:41Z</time>
      </trkpt>
      <trkpt lat="43.4983" lon="3.52671">
        <ele>131</ele>
        <time>2016-04-22T14:05:53Z</time>
      </trkpt>
      <trkpt lat="43.49888" lon="3.52639">
        <ele>128</ele>
        <time>2016-04-22T14:06:11Z</time>
      </trkpt>
      <trkpt lat="43.49894" lon="3.52636">
        <ele>128</ele>
        <time>2016-04-22T14:06:13Z</time>
      </trkpt>
      <trkpt lat="43.49899" lon="3.52633">
        <ele>128</ele>
        <time>2016-04-22T14:06:15Z</time>
      </trkpt>
      <trkpt lat="43.49906" lon="3.52631">
        <ele>127</ele>
        <time>2016-04-22T14:06:17Z</time>
      </trkpt>
      <trkpt lat="43.49908" lon="3.52629">
        <ele>127</ele>
        <time>2016-04-22T14:06:18Z</time>
      </trkpt>
      <trkpt lat="43.49921" lon="3.52621">
        <ele>128</ele>
        <time>2016-04-22T14:06:23Z</time>
      </trkpt>
      <trkpt lat="43.49928" lon="3.52618">
        <ele>127</ele>
        <time>2016-04-22T14:06:26Z</time>
      </trkpt>
      <trkpt lat="43.49953" lon="3.52596">
        <ele>129</ele>
        <time>2016-04-22T14:06:36Z</time>
      </trkpt>
      <trkpt lat="43.49959" lon="3.52593">
        <ele>128</ele>
        <time>2016-04-22T14:06:38Z</time>
      </trkpt>
      <trkpt lat="43.49968" lon="3.52584">
        <ele>125</ele>
        <time>2016-04-22T14:06:43Z</time>
      </trkpt>
      <trkpt lat="43.49971" lon="3.52583">
        <ele>125</ele>
        <time>2016-04-22T14:06:45Z</time>
      </trkpt>
      <trkpt lat="43.49974" lon="3.52574">
        <ele>126</ele>
        <time>2016-04-22T14:06:52Z</time>
      </trkpt>
      <trkpt lat="43.49979" lon="3.52567">
        <ele>126</ele>
        <time>2016-04-22T14:06:55Z</time>
      </trkpt>
      <trkpt lat="43.49995" lon="3.52549">
        <ele>128</ele>
        <time>2016-04-22T14:07:03Z</time>
      </trkpt>
      <trkpt lat="43.49997" lon="3.52547">
        <ele>128</ele>
        <time>2016-04-22T14:07:04Z</time>
      </trkpt>
      <trkpt lat="43.5" lon="3.52546">
        <ele>128</ele>
        <time>2016-04-22T14:07:05Z</time>
      </trkpt>
      <trkpt lat="43.50002" lon="3.52544">
        <ele>128</ele>
        <time>2016-04-22T14:07:06Z</time>
      </trkpt>
      <trkpt lat="43.50008" lon="3.52536">
        <ele>126</ele>
        <time>2016-04-22T14:07:09Z</time>
      </trkpt>
      <trkpt lat="43.50012" lon="3.5253">
        <ele>127</ele>
        <time>2016-04-22T14:07:11Z</time>
      </trkpt>
      <trkpt lat="43.50064" lon="3.52487">
        <ele>135</ele>
        <time>2016-04-22T14:07:33Z</time>
      </trkpt>
      <trkpt lat="43.50077" lon="3.52471">
        <ele>143</ele>
        <time>2016-04-22T14:07:40Z</time>
      </trkpt>
      <trkpt lat="43.50192" lon="3.52309">
        <ele>131</ele>
        <time>2016-04-22T14:08:10Z</time>
      </trkpt>
      <trkpt lat="43.50197" lon="3.52313">
        <ele>131</ele>
        <time>2016-04-22T14:08:11Z</time>
      </trkpt>
      <trkpt lat="43.50232" lon="3.52269">
        <ele>128</ele>
        <time>2016-04-22T14:08:16Z</time>
      </trkpt>
      <trkpt lat="43.50235" lon="3.52257">
        <ele>126</ele>
        <time>2016-04-22T14:08:17Z</time>
      </trkpt>
      <trkpt lat="43.50241" lon="3.52252">
        <ele>125</ele>
        <time>2016-04-22T14:08:18Z</time>
      </trkpt>
      <trkpt lat="43.50263" lon="3.52216">
        <ele>123</ele>
        <time>2016-04-22T14:08:22Z</time>
      </trkpt>
      <trkpt lat="43.50272" lon="3.52212">
        <ele>123</ele>
        <time>2016-04-22T14:08:23Z</time>
      </trkpt>
      <trkpt lat="43.5028" lon="3.52206">
        <ele>123</ele>
        <time>2016-04-22T14:08:24Z</time>
      </trkpt>
      <trkpt lat="43.50286" lon="3.52202">
        <ele>123</ele>
        <time>2016-04-22T14:08:25Z</time>
      </trkpt>
      <trkpt lat="43.50297" lon="3.52186">
        <ele>122</ele>
        <time>2016-04-22T14:08:27Z</time>
      </trkpt>
      <trkpt lat="43.50305" lon="3.52179">
        <ele>122</ele>
        <time>2016-04-22T14:08:28Z</time>
      </trkpt>
      <trkpt lat="43.50321" lon="3.52176">
        <ele>123</ele>
        <time>2016-04-22T14:08:30Z</time>
      </trkpt>
      <trkpt lat="43.50328" lon="3.52179">
        <ele>123</ele>
        <time>2016-04-22T14:08:31Z</time>
      </trkpt>
      <trkpt lat="43.50343" lon="3.52176">
        <ele>122</ele>
        <time>2016-04-22T14:08:33Z</time>
      </trkpt>
      <trkpt lat="43.50374" lon="3.52166">
        <ele>123</ele>
        <time>2016-04-22T14:08:38Z</time>
      </trkpt>
      <trkpt lat="43.50533" lon="3.52141">
        <ele>113</ele>
        <time>2016-04-22T14:09:03Z</time>
      </trkpt>
      <trkpt lat="43.50536" lon="3.52139">
        <ele>113</ele>
        <time>2016-04-22T14:09:05Z</time>
      </trkpt>
      <trkpt lat="43.50535" lon="3.52135">
        <ele>112</ele>
        <time>2016-04-22T14:09:06Z</time>
      </trkpt>
      <trkpt lat="43.50537" lon="3.52129">
        <ele>111</ele>
        <time>2016-04-22T14:09:07Z</time>
      </trkpt>
      <trkpt lat="43.5054" lon="3.52129">
        <ele>111</ele>
        <time>2016-04-22T14:09:08Z</time>
      </trkpt>
      <trkpt lat="43.50542" lon="3.52124">
        <ele>110</ele>
        <time>2016-04-22T14:09:09Z</time>
      </trkpt>
      <trkpt lat="43.50542" lon="3.52119">
        <ele>110</ele>
        <time>2016-04-22T14:09:10Z</time>
      </trkpt>
      <trkpt lat="43.50545" lon="3.52115">
        <ele>109</ele>
        <time>2016-04-22T14:09:11Z</time>
      </trkpt>
      <trkpt lat="43.50548" lon="3.52103">
        <ele>109</ele>
        <time>2016-04-22T14:09:14Z</time>
      </trkpt>
      <trkpt lat="43.50555" lon="3.52089">
        <ele>108</ele>
        <time>2016-04-22T14:09:19Z</time>
      </trkpt>
      <trkpt lat="43.50565" lon="3.52073">
        <ele>109</ele>
        <time>2016-04-22T14:09:22Z</time>
      </trkpt>
      <trkpt lat="43.5057" lon="3.52059">
        <ele>108</ele>
        <time>2016-04-22T14:09:24Z</time>
      </trkpt>
      <trkpt lat="43.50599" lon="3.52002">
        <ele>102</ele>
        <time>2016-04-22T14:09:34Z</time>
      </trkpt>
      <trkpt lat="43.50615" lon="3.51972">
        <ele>103</ele>
        <time>2016-04-22T14:09:41Z</time>
      </trkpt>
      <trkpt lat="43.50621" lon="3.51959">
        <ele>102</ele>
        <time>2016-04-22T14:09:44Z</time>
      </trkpt>
      <trkpt lat="43.50624" lon="3.51954">
        <ele>102</ele>
        <time>2016-04-22T14:09:45Z</time>
      </trkpt>
      <trkpt lat="43.50684" lon="3.51744">
        <ele>96</ele>
        <time>2016-04-22T14:10:16Z</time>
      </trkpt>
      <trkpt lat="43.50695" lon="3.51739">
        <ele>96</ele>
        <time>2016-04-22T14:10:18Z</time>
      </trkpt>
      <trkpt lat="43.50806" lon="3.51697">
        <ele>85</ele>
        <time>2016-04-22T14:10:39Z</time>
      </trkpt>
      <trkpt lat="43.50815" lon="3.51701">
        <ele>88</ele>
        <time>2016-04-22T14:10:42Z</time>
      </trkpt>
      <trkpt lat="43.50818" lon="3.51702">
        <ele>88</ele>
        <time>2016-04-22T14:10:43Z</time>
      </trkpt>
      <trkpt lat="43.50821" lon="3.51703">
        <ele>89</ele>
        <time>2016-04-22T14:10:44Z</time>
      </trkpt>
      <trkpt lat="43.50831" lon="3.51709">
        <ele>89</ele>
        <time>2016-04-22T14:10:47Z</time>
      </trkpt>
      <trkpt lat="43.50838" lon="3.51713">
        <ele>89</ele>
        <time>2016-04-22T14:10:49Z</time>
      </trkpt>
      <trkpt lat="43.50859" lon="3.51728">
        <ele>89</ele>
        <time>2016-04-22T14:10:55Z</time>
      </trkpt>
      <trkpt lat="43.50862" lon="3.51729">
        <ele>88</ele>
        <time>2016-04-22T14:10:56Z</time>
      </trkpt>
      <trkpt lat="43.50867" lon="3.51721">
        <ele>88</ele>
        <time>2016-04-22T14:10:57Z</time>
      </trkpt>
      <trkpt lat="43.50871" lon="3.51719">
        <ele>87</ele>
        <time>2016-04-22T14:10:58Z</time>
      </trkpt>
      <trkpt lat="43.50883" lon="3.51704">
        <ele>87</ele>
        <time>2016-04-22T14:11:02Z</time>
      </trkpt>
      <trkpt lat="43.50917" lon="3.51675">
        <ele>92</ele>
        <time>2016-04-22T14:11:14Z</time>
      </trkpt>
      <trkpt lat="43.50924" lon="3.51669">
        <ele>91</ele>
        <time>2016-04-22T14:11:16Z</time>
      </trkpt>
      <trkpt lat="43.50926" lon="3.51666">
        <ele>92</ele>
        <time>2016-04-22T14:11:17Z</time>
      </trkpt>
      <trkpt lat="43.50938" lon="3.51651">
        <ele>94</ele>
        <time>2016-04-22T14:11:22Z</time>
      </trkpt>
      <trkpt lat="43.50941" lon="3.51647">
        <ele>94</ele>
        <time>2016-04-22T14:11:23Z</time>
      </trkpt>
      <trkpt lat="43.50954" lon="3.51637">
        <ele>93</ele>
        <time>2016-04-22T14:11:26Z</time>
      </trkpt>
      <trkpt lat="43.51048" lon="3.51554">
        <ele>99</ele>
        <time>2016-04-22T14:11:57Z</time>
      </trkpt>
      <trkpt lat="43.51058" lon="3.51545">
        <ele>100</ele>
        <time>2016-04-22T14:12:01Z</time>
      </trkpt>
      <trkpt lat="43.51071" lon="3.51538">
        <ele>100</ele>
        <time>2016-04-22T14:12:07Z</time>
      </trkpt>
      <trkpt lat="43.51073" lon="3.5154">
        <ele>100</ele>
        <time>2016-04-22T14:12:08Z</time>
      </trkpt>
      <trkpt lat="43.51075" lon="3.51547">
        <ele>99</ele>
        <time>2016-04-22T14:12:10Z</time>
      </trkpt>
      <trkpt lat="43.51096" lon="3.5174">
        <ele>86</ele>
        <time>2016-04-22T14:12:40Z</time>
      </trkpt>
      <trkpt lat="43.51093" lon="3.51745">
        <ele>85</ele>
        <time>2016-04-22T14:12:41Z</time>
      </trkpt>
      <trkpt lat="43.51088" lon="3.51751">
        <ele>85</ele>
        <time>2016-04-22T14:12:43Z</time>
      </trkpt>
      <trkpt lat="43.51084" lon="3.51751">
        <ele>85</ele>
        <time>2016-04-22T14:12:44Z</time>
      </trkpt>
      <trkpt lat="43.51077" lon="3.51757">
        <ele>84</ele>
        <time>2016-04-22T14:12:46Z</time>
      </trkpt>
      <trkpt lat="43.51061" lon="3.51769">
        <ele>85</ele>
        <time>2016-04-22T14:12:51Z</time>
      </trkpt>
      <trkpt lat="43.51048" lon="3.51781">
        <ele>84</ele>
        <time>2016-04-22T14:12:55Z</time>
      </trkpt>
      <trkpt lat="43.51047" lon="3.51791">
        <ele>84</ele>
        <time>2016-04-22T14:12:57Z</time>
      </trkpt>
      <trkpt lat="43.51049" lon="3.51796">
        <ele>84</ele>
        <time>2016-04-22T14:12:58Z</time>
      </trkpt>
      <trkpt lat="43.51052" lon="3.51804">
        <ele>83</ele>
        <time>2016-04-22T14:13:00Z</time>
      </trkpt>
      <trkpt lat="43.51074" lon="3.51827">
        <ele>82</ele>
        <time>2016-04-22T14:13:06Z</time>
      </trkpt>
      <trkpt lat="43.51081" lon="3.51833">
        <ele>82</ele>
        <time>2016-04-22T14:13:08Z</time>
      </trkpt>
      <trkpt lat="43.51085" lon="3.51836">
        <ele>82</ele>
        <time>2016-04-22T14:13:09Z</time>
      </trkpt>
      <trkpt lat="43.51106" lon="3.51863">
        <ele>82</ele>
        <time>2016-04-22T14:13:17Z</time>
      </trkpt>
      <trkpt lat="43.51111" lon="3.51876">
        <ele>82</ele>
        <time>2016-04-22T14:13:20Z</time>
      </trkpt>
      <trkpt lat="43.51119" lon="3.51916">
        <ele>81</ele>
        <time>2016-04-22T14:13:28Z</time>
      </trkpt>
      <trkpt lat="43.51125" lon="3.51955">
        <ele>82</ele>
        <time>2016-04-22T14:13:36Z</time>
      </trkpt>
      <trkpt lat="43.51127" lon="3.5196">
        <ele>82</ele>
        <time>2016-04-22T14:13:37Z</time>
      </trkpt>
      <trkpt lat="43.5114" lon="3.51984">
        <ele>87</ele>
        <time>2016-04-22T14:13:43Z</time>
      </trkpt>
      <trkpt lat="43.51145" lon="3.51988">
        <ele>87</ele>
        <time>2016-04-22T14:13:45Z</time>
      </trkpt>
      <trkpt lat="43.51158" lon="3.52002">
        <ele>86</ele>
        <time>2016-04-22T14:13:50Z</time>
      </trkpt>
      <trkpt lat="43.51174" lon="3.52048">
        <ele>83</ele>
        <time>2016-04-22T14:13:55Z</time>
      </trkpt>
      <trkpt lat="43.51212" lon="3.52068">
        <ele>79</ele>
        <time>2016-04-22T14:14:04Z</time>
      </trkpt>
      <trkpt lat="43.51212" lon="3.52062">
        <ele>79</ele>
        <time>2016-04-22T14:14:58Z</time>
      </trkpt>
      <trkpt lat="43.51228" lon="3.52041">
        <ele>78</ele>
        <time>2016-04-22T14:15:05Z</time>
      </trkpt>
      <trkpt lat="43.51232" lon="3.52042">
        <ele>78</ele>
        <time>2016-04-22T14:15:06Z</time>
      </trkpt>
      <trkpt lat="43.51245" lon="3.52045">
        <ele>78</ele>
        <time>2016-04-22T14:15:11Z</time>
      </trkpt>
      <trkpt lat="43.51261" lon="3.52052">
        <ele>77</ele>
        <time>2016-04-22T14:15:16Z</time>
      </trkpt>
      <trkpt lat="43.51269" lon="3.52053">
        <ele>77</ele>
        <time>2016-04-22T14:15:19Z</time>
      </trkpt>
      <trkpt lat="43.51274" lon="3.52052">
        <ele>79</ele>
        <time>2016-04-22T14:15:21Z</time>
      </trkpt>
      <trkpt lat="43.5128" lon="3.52048">
        <ele>79</ele>
        <time>2016-04-22T14:15:23Z</time>
      </trkpt>
      <trkpt lat="43.51293" lon="3.52036">
        <ele>82</ele>
        <time>2016-04-22T14:15:28Z</time>
      </trkpt>
      <trkpt lat="43.51295" lon="3.52034">
        <ele>82</ele>
        <time>2016-04-22T14:15:29Z</time>
      </trkpt>
      <trkpt lat="43.51387" lon="3.51921">
        <ele>89</ele>
        <time>2016-04-22T14:16:00Z</time>
      </trkpt>
      <trkpt lat="43.5141" lon="3.51889">
        <ele>87</ele>
        <time>2016-04-22T14:16:07Z</time>
      </trkpt>
      <trkpt lat="43.51418" lon="3.51854">
        <ele>83</ele>
        <time>2016-04-22T14:16:12Z</time>
      </trkpt>
      <trkpt lat="43.5142" lon="3.51848">
        <ele>82</ele>
        <time>2016-04-22T14:16:13Z</time>
      </trkpt>
      <trkpt lat="43.51449" lon="3.5181">
        <ele>80</ele>
        <time>2016-04-22T14:16:21Z</time>
      </trkpt>
      <trkpt lat="43.51472" lon="3.51785">
        <ele>80</ele>
        <time>2016-04-22T14:16:26Z</time>
      </trkpt>
      <trkpt lat="43.51474" lon="3.51789">
        <ele>80</ele>
        <time>2016-04-22T14:16:27Z</time>
      </trkpt>
      <trkpt lat="43.51477" lon="3.51789">
        <ele>80</ele>
        <time>2016-04-22T14:16:28Z</time>
      </trkpt>
      <trkpt lat="43.51482" lon="3.51784">
        <ele>79</ele>
        <time>2016-04-22T14:16:33Z</time>
      </trkpt>
      <trkpt lat="43.5149" lon="3.51779">
        <ele>78</ele>
        <time>2016-04-22T14:16:36Z</time>
      </trkpt>
      <trkpt lat="43.51495" lon="3.51777">
        <ele>77</ele>
        <time>2016-04-22T14:16:37Z</time>
      </trkpt>
      <trkpt lat="43.51516" lon="3.51763">
        <ele>78</ele>
        <time>2016-04-22T14:16:43Z</time>
      </trkpt>
      <trkpt lat="43.51598" lon="3.5175">
        <ele>72</ele>
        <time>2016-04-22T14:16:57Z</time>
      </trkpt>
      <trkpt lat="43.51623" lon="3.51749">
        <ele>74</ele>
        <time>2016-04-22T14:17:01Z</time>
      </trkpt>
      <trkpt lat="43.51629" lon="3.51753">
        <ele>74</ele>
        <time>2016-04-22T14:17:02Z</time>
      </trkpt>
      <trkpt lat="43.51633" lon="3.51754">
        <ele>74</ele>
        <time>2016-04-22T14:17:03Z</time>
      </trkpt>
      <trkpt lat="43.51638" lon="3.51754">
        <ele>73</ele>
        <time>2016-04-22T14:17:04Z</time>
      </trkpt>
      <trkpt lat="43.51659" lon="3.51759">
        <ele>73</ele>
        <time>2016-04-22T14:17:08Z</time>
      </trkpt>
      <trkpt lat="43.51685" lon="3.51767">
        <ele>70</ele>
        <time>2016-04-22T14:17:13Z</time>
      </trkpt>
      <trkpt lat="43.51697" lon="3.51769">
        <ele>70</ele>
        <time>2016-04-22T14:17:15Z</time>
      </trkpt>
      <trkpt lat="43.51708" lon="3.51767">
        <ele>70</ele>
        <time>2016-04-22T14:17:17Z</time>
      </trkpt>
      <trkpt lat="43.51736" lon="3.5177">
        <ele>67</ele>
        <time>2016-04-22T14:17:23Z</time>
      </trkpt>
      <trkpt lat="43.51747" lon="3.51773">
        <ele>68</ele>
        <time>2016-04-22T14:17:25Z</time>
      </trkpt>
      <trkpt lat="43.51756" lon="3.51776">
        <ele>67</ele>
        <time>2016-04-22T14:17:27Z</time>
      </trkpt>
      <trkpt lat="43.51773" lon="3.51778">
        <ele>68</ele>
        <time>2016-04-22T14:17:30Z</time>
      </trkpt>
      <trkpt lat="43.51778" lon="3.51781">
        <ele>68</ele>
        <time>2016-04-22T14:17:31Z</time>
      </trkpt>
      <trkpt lat="43.51797" lon="3.51785">
        <ele>67</ele>
        <time>2016-04-22T14:17:34Z</time>
      </trkpt>
      <trkpt lat="43.51799" lon="3.51773">
        <ele>66</ele>
        <time>2016-04-22T14:17:35Z</time>
      </trkpt>
      <trkpt lat="43.51801" lon="3.51769">
        <ele>66</ele>
        <time>2016-04-22T14:17:36Z</time>
      </trkpt>
      <trkpt lat="43.51805" lon="3.51763">
        <ele>66</ele>
        <time>2016-04-22T14:17:37Z</time>
      </trkpt>
      <trkpt lat="43.51814" lon="3.51753">
        <ele>67</ele>
        <time>2016-04-22T14:17:40Z</time>
      </trkpt>
      <trkpt lat="43.51817" lon="3.51755">
        <ele>68</ele>
        <time>2016-04-22T14:17:41Z</time>
      </trkpt>
      <trkpt lat="43.51821" lon="3.51754">
        <ele>68</ele>
        <time>2016-04-22T14:17:42Z</time>
      </trkpt>
      <trkpt lat="43.51834" lon="3.51762">
        <ele>69</ele>
        <time>2016-04-22T14:17:46Z</time>
      </trkpt>
      <trkpt lat="43.5187" lon="3.5177">
        <ele>73</ele>
        <time>2016-04-22T14:17:56Z</time>
      </trkpt>
      <trkpt lat="43.51873" lon="3.51771">
        <ele>73</ele>
        <time>2016-04-22T14:17:58Z</time>
      </trkpt>
      <trkpt lat="43.51876" lon="3.51772">
        <ele>73</ele>
        <time>2016-04-22T14:18:00Z</time>
      </trkpt>
      <trkpt lat="43.51878" lon="3.51765">
        <ele>73</ele>
        <time>2016-04-22T14:18:03Z</time>
      </trkpt>
      <trkpt lat="43.51878" lon="3.51762">
        <ele>73</ele>
        <time>2016-04-22T14:18:04Z</time>
      </trkpt>
      <trkpt lat="43.51878" lon="3.51758">
        <ele>72</ele>
        <time>2016-04-22T14:18:05Z</time>
      </trkpt>
      <trkpt lat="43.5188" lon="3.51723">
        <ele>74</ele>
        <time>2016-04-22T14:18:12Z</time>
      </trkpt>
      <trkpt lat="43.51885" lon="3.51708">
        <ele>74</ele>
        <time>2016-04-22T14:18:14Z</time>
      </trkpt>
      <trkpt lat="43.51889" lon="3.51695">
        <ele>73</ele>
        <time>2016-04-22T14:18:16Z</time>
      </trkpt>
      <trkpt lat="43.51892" lon="3.51689">
        <ele>73</ele>
        <time>2016-04-22T14:18:17Z</time>
      </trkpt>
      <trkpt lat="43.51969" lon="3.5146">
        <ele>66</ele>
        <time>2016-04-22T14:18:48Z</time>
      </trkpt>
      <trkpt lat="43.51972" lon="3.51453">
        <ele>66</ele>
        <time>2016-04-22T14:18:49Z</time>
      </trkpt>
      <trkpt lat="43.52007" lon="3.51391">
        <ele>66</ele>
        <time>2016-04-22T14:18:58Z</time>
      </trkpt>
      <trkpt lat="43.5201" lon="3.51383">
        <ele>66</ele>
        <time>2016-04-22T14:18:59Z</time>
      </trkpt>
      <trkpt lat="43.52022" lon="3.51359">
        <ele>66</ele>
        <time>2016-04-22T14:19:02Z</time>
      </trkpt>
      <trkpt lat="43.52056" lon="3.51284">
        <ele>63</ele>
        <time>2016-04-22T14:19:12Z</time>
      </trkpt>
      <trkpt lat="43.52061" lon="3.51274">
        <ele>63</ele>
        <time>2016-04-22T14:19:14Z</time>
      </trkpt>
      <trkpt lat="43.5207" lon="3.51266">
        <ele>63</ele>
        <time>2016-04-22T14:19:16Z</time>
      </trkpt>
      <trkpt lat="43.52072" lon="3.51258">
        <ele>63</ele>
        <time>2016-04-22T14:19:17Z</time>
      </trkpt>
      <trkpt lat="43.52078" lon="3.51242">
        <ele>64</ele>
        <time>2016-04-22T14:19:20Z</time>
      </trkpt>
      <trkpt lat="43.52091" lon="3.5123">
        <ele>63</ele>
        <time>2016-04-22T14:19:22Z</time>
      </trkpt>
      <trkpt lat="43.52085" lon="3.51223">
        <ele>64</ele>
        <time>2016-04-22T14:19:23Z</time>
      </trkpt>
      <trkpt lat="43.52087" lon="3.51224">
        <ele>63</ele>
        <time>2016-04-22T14:19:24Z</time>
      </trkpt>
      <trkpt lat="43.52095" lon="3.51197">
        <ele>60</ele>
        <time>2016-04-22T14:19:30Z</time>
      </trkpt>
      <trkpt lat="43.52144" lon="3.51011">
        <ele>51</ele>
        <time>2016-04-22T14:19:58Z</time>
      </trkpt>
      <trkpt lat="43.52199" lon="3.50981">
        <ele>47</ele>
        <time>2016-04-22T14:20:10Z</time>
      </trkpt>
      <trkpt lat="43.52217" lon="3.50989">
        <ele>44</ele>
        <time>2016-04-22T14:20:14Z</time>
      </trkpt>
      <trkpt lat="43.52225" lon="3.50997">
        <ele>43</ele>
        <time>2016-04-22T14:20:16Z</time>
      </trkpt>
      <trkpt lat="43.52238" lon="3.5102">
        <ele>42</ele>
        <time>2016-04-22T14:20:21Z</time>
      </trkpt>
      <trkpt lat="43.5224" lon="3.51025">
        <ele>42</ele>
        <time>2016-04-22T14:20:22Z</time>
      </trkpt>
      <trkpt lat="43.52244" lon="3.51027">
        <ele>42</ele>
        <time>2016-04-22T14:20:23Z</time>
      </trkpt>
      <trkpt lat="43.52259" lon="3.5105">
        <ele>40</ele>
        <time>2016-04-22T14:20:30Z</time>
      </trkpt>
      <trkpt lat="43.52323" lon="3.51094">
        <ele>44</ele>
        <time>2016-04-22T14:20:49Z</time>
      </trkpt>
      <trkpt lat="43.52346" lon="3.51115">
        <ele>48</ele>
        <time>2016-04-22T14:20:59Z</time>
      </trkpt>
      <trkpt lat="43.52348" lon="3.51118">
        <ele>48</ele>
        <time>2016-04-22T14:21:00Z</time>
      </trkpt>
      <trkpt lat="43.52356" lon="3.51129">
        <ele>49</ele>
        <time>2016-04-22T14:21:05Z</time>
      </trkpt>
      <trkpt lat="43.52358" lon="3.51131">
        <ele>49</ele>
        <time>2016-04-22T14:21:06Z</time>
      </trkpt>
      <trkpt lat="43.52393" lon="3.51208">
        <ele>57</ele>
        <time>2016-04-22T14:21:36Z</time>
      </trkpt>
      <trkpt lat="43.52395" lon="3.51212">
        <ele>58</ele>
        <time>2016-04-22T14:21:38Z</time>
      </trkpt>
      <trkpt lat="43.52396" lon="3.51217">
        <ele>58</ele>
        <time>2016-04-22T14:21:40Z</time>
      </trkpt>
      <trkpt lat="43.52403" lon="3.51232">
        <ele>59</ele>
        <time>2016-04-22T14:21:47Z</time>
      </trkpt>
      <trkpt lat="43.52409" lon="3.5125">
        <ele>59</ele>
        <time>2016-04-22T14:21:55Z</time>
      </trkpt>
      <trkpt lat="43.52417" lon="3.51266">
        <ele>60</ele>
        <time>2016-04-22T14:22:02Z</time>
      </trkpt>
      <trkpt lat="43.52419" lon="3.51268">
        <ele>60</ele>
        <time>2016-04-22T14:22:04Z</time>
      </trkpt>
      <trkpt lat="43.52429" lon="3.51287">
        <ele>60</ele>
        <time>2016-04-22T14:22:13Z</time>
      </trkpt>
      <trkpt lat="43.52432" lon="3.51293">
        <ele>60</ele>
        <time>2016-04-22T14:22:15Z</time>
      </trkpt>
      <trkpt lat="43.52435" lon="3.51299">
        <ele>60</ele>
        <time>2016-04-22T14:22:17Z</time>
      </trkpt>
      <trkpt lat="43.52445" lon="3.51313">
        <ele>58</ele>
        <time>2016-04-22T14:22:24Z</time>
      </trkpt>
      <trkpt lat="43.52448" lon="3.51317">
        <ele>59</ele>
        <time>2016-04-22T14:22:26Z</time>
      </trkpt>
      <trkpt lat="43.52462" lon="3.51342">
        <ele>62</ele>
        <time>2016-04-22T14:22:37Z</time>
      </trkpt>
      <trkpt lat="43.52467" lon="3.5135">
        <ele>62</ele>
        <time>2016-04-22T14:22:41Z</time>
      </trkpt>
      <trkpt lat="43.5247" lon="3.51355">
        <ele>62</ele>
        <time>2016-04-22T14:22:43Z</time>
      </trkpt>
      <trkpt lat="43.52481" lon="3.51372">
        <ele>63</ele>
        <time>2016-04-22T14:22:51Z</time>
      </trkpt>
      <trkpt lat="43.52492" lon="3.5139">
        <ele>61</ele>
        <time>2016-04-22T14:22:58Z</time>
      </trkpt>
      <trkpt lat="43.52507" lon="3.51409">
        <ele>58</ele>
        <time>2016-04-22T14:23:07Z</time>
      </trkpt>
      <trkpt lat="43.52511" lon="3.51412">
        <ele>58</ele>
        <time>2016-04-22T14:23:09Z</time>
      </trkpt>
      <trkpt lat="43.52516" lon="3.51415">
        <ele>58</ele>
        <time>2016-04-22T14:23:12Z</time>
      </trkpt>
      <trkpt lat="43.5257" lon="3.51444">
        <ele>65</ele>
        <time>2016-04-22T14:23:34Z</time>
      </trkpt>
      <trkpt lat="43.52577" lon="3.51448">
        <ele>64</ele>
        <time>2016-04-22T14:23:37Z</time>
      </trkpt>
      <trkpt lat="43.52603" lon="3.51467">
        <ele>64</ele>
        <time>2016-04-22T14:23:48Z</time>
      </trkpt>
      <trkpt lat="43.52612" lon="3.51473">
        <ele>65</ele>
        <time>2016-04-22T14:23:51Z</time>
      </trkpt>
      <trkpt lat="43.52619" lon="3.51479">
        <ele>66</ele>
        <time>2016-04-22T14:23:54Z</time>
      </trkpt>
      <trkpt lat="43.52653" lon="3.51532">
        <ele>74</ele>
        <time>2016-04-22T14:24:14Z</time>
      </trkpt>
      <trkpt lat="43.52657" lon="3.51536">
        <ele>73</ele>
        <time>2016-04-22T14:24:16Z</time>
      </trkpt>
      <trkpt lat="43.52694" lon="3.51579">
        <ele>68</ele>
        <time>2016-04-22T14:24:34Z</time>
      </trkpt>
      <trkpt lat="43.52701" lon="3.5159">
        <ele>69</ele>
        <time>2016-04-22T14:24:37Z</time>
      </trkpt>
      <trkpt lat="43.52713" lon="3.51606">
        <ele>68</ele>
        <time>2016-04-22T14:24:43Z</time>
      </trkpt>
      <trkpt lat="43.52715" lon="3.51609">
        <ele>68</ele>
        <time>2016-04-22T14:24:44Z</time>
      </trkpt>
      <trkpt lat="43.52719" lon="3.51615">
        <ele>67</ele>
        <time>2016-04-22T14:24:46Z</time>
      </trkpt>
      <trkpt lat="43.52724" lon="3.51625">
        <ele>68</ele>
        <time>2016-04-22T14:24:49Z</time>
      </trkpt>
      <trkpt lat="43.5273" lon="3.51635">
        <ele>69</ele>
        <time>2016-04-22T14:24:52Z</time>
      </trkpt>
      <trkpt lat="43.52737" lon="3.51649">
        <ele>70</ele>
        <time>2016-04-22T14:24:58Z</time>
      </trkpt>
      <trkpt lat="43.52751" lon="3.51661">
        <ele>72</ele>
        <time>2016-04-22T14:25:04Z</time>
      </trkpt>
      <trkpt lat="43.52754" lon="3.51664">
        <ele>71</ele>
        <time>2016-04-22T14:25:05Z</time>
      </trkpt>
      <trkpt lat="43.52765" lon="3.51669">
        <ele>72</ele>
        <time>2016-04-22T14:25:08Z</time>
      </trkpt>
      <trkpt lat="43.52771" lon="3.51675">
        <ele>71</ele>
        <time>2016-04-22T14:25:10Z</time>
      </trkpt>
      <trkpt lat="43.52774" lon="3.51682">
        <ele>72</ele>
        <time>2016-04-22T14:25:12Z</time>
      </trkpt>
      <trkpt lat="43.52781" lon="3.5169">
        <ele>71</ele>
        <time>2016-04-22T14:25:14Z</time>
      </trkpt>
      <trkpt lat="43.5281" lon="3.51697">
        <ele>72</ele>
        <time>2016-04-22T14:25:18Z</time>
      </trkpt>
      <trkpt lat="43.52814" lon="3.51703">
        <ele>72</ele>
        <time>2016-04-22T14:25:19Z</time>
      </trkpt>
      <trkpt lat="43.52829" lon="3.51717">
        <ele>72</ele>
        <time>2016-04-22T14:25:23Z</time>
      </trkpt>
      <trkpt lat="43.52832" lon="3.51721">
        <ele>72</ele>
        <time>2016-04-22T14:25:24Z</time>
      </trkpt>
      <trkpt lat="43.52835" lon="3.51723">
        <ele>72</ele>
        <time>2016-04-22T14:25:25Z</time>
      </trkpt>
      <trkpt lat="43.52846" lon="3.51737">
        <ele>73</ele>
        <time>2016-04-22T14:25:30Z</time>
      </trkpt>
      <trkpt lat="43.52846" lon="3.51747">
        <ele>73</ele>
        <time>2016-04-22T14:25:34Z</time>
      </trkpt>
      <trkpt lat="43.52856" lon="3.51761">
        <ele>72</ele>
        <time>2016-04-22T14:25:38Z</time>
      </trkpt>
      <trkpt lat="43.52862" lon="3.51766">
        <ele>72</ele>
        <time>2016-04-22T14:25:40Z</time>
      </trkpt>
      <trkpt lat="43.52872" lon="3.51774">
        <ele>72</ele>
        <time>2016-04-22T14:25:43Z</time>
      </trkpt>
      <trkpt lat="43.52891" lon="3.51797">
        <ele>71</ele>
        <time>2016-04-22T14:25:47Z</time>
      </trkpt>
      <trkpt lat="43.52888" lon="3.51806">
        <ele>71</ele>
        <time>2016-04-22T14:25:48Z</time>
      </trkpt>
      <trkpt lat="43.52876" lon="3.51811">
        <ele>71</ele>
        <time>2016-04-22T14:25:50Z</time>
      </trkpt>
      <trkpt lat="43.52878" lon="3.51813">
        <ele>71</ele>
        <time>2016-04-22T14:25:51Z</time>
      </trkpt>
      <trkpt lat="43.52881" lon="3.51823">
        <ele>70</ele>
        <time>2016-04-22T14:25:54Z</time>
      </trkpt>
      <trkpt lat="43.52887" lon="3.51839">
        <ele>70</ele>
        <time>2016-04-22T14:25:59Z</time>
      </trkpt>
      <trkpt lat="43.52897" lon="3.51862">
        <ele>73</ele>
        <time>2016-04-22T14:26:06Z</time>
      </trkpt>
      <trkpt lat="43.52902" lon="3.51883">
        <ele>73</ele>
        <time>2016-04-22T14:26:12Z</time>
      </trkpt>
      <trkpt lat="43.52902" lon="3.51892">
        <ele>74</ele>
        <time>2016-04-22T14:26:14Z</time>
      </trkpt>
      <trkpt lat="43.52902" lon="3.51897">
        <ele>74</ele>
        <time>2016-04-22T14:26:15Z</time>
      </trkpt>
      <trkpt lat="43.52898" lon="3.51928">
        <ele>75</ele>
        <time>2016-04-22T14:26:22Z</time>
      </trkpt>
      <trkpt lat="43.52897" lon="3.51944">
        <ele>74</ele>
        <time>2016-04-22T14:26:27Z</time>
      </trkpt>
      <trkpt lat="43.52898" lon="3.51948">
        <ele>74</ele>
        <time>2016-04-22T14:26:28Z</time>
      </trkpt>
      <trkpt lat="43.52904" lon="3.51958">
        <ele>74</ele>
        <time>2016-04-22T14:26:31Z</time>
      </trkpt>
      <trkpt lat="43.52906" lon="3.51961">
        <ele>74</ele>
        <time>2016-04-22T14:26:32Z</time>
      </trkpt>
      <trkpt lat="43.52909" lon="3.51964">
        <ele>74</ele>
        <time>2016-04-22T14:26:33Z</time>
      </trkpt>
      <trkpt lat="43.52916" lon="3.51974">
        <ele>73</ele>
        <time>2016-04-22T14:26:36Z</time>
      </trkpt>
      <trkpt lat="43.52919" lon="3.51977">
        <ele>74</ele>
        <time>2016-04-22T14:26:37Z</time>
      </trkpt>
      <trkpt lat="43.5292" lon="3.51984">
        <ele>73</ele>
        <time>2016-04-22T14:26:39Z</time>
      </trkpt>
      <trkpt lat="43.52919" lon="3.51998">
        <ele>74</ele>
        <time>2016-04-22T14:26:43Z</time>
      </trkpt>
      <trkpt lat="43.5292" lon="3.52002">
        <ele>74</ele>
        <time>2016-04-22T14:26:44Z</time>
      </trkpt>
      <trkpt lat="43.52931" lon="3.52022">
        <ele>74</ele>
        <time>2016-04-22T14:26:50Z</time>
      </trkpt>
      <trkpt lat="43.52932" lon="3.52026">
        <ele>74</ele>
        <time>2016-04-22T14:26:51Z</time>
      </trkpt>
      <trkpt lat="43.52933" lon="3.52043">
        <ele>74</ele>
        <time>2016-04-22T14:26:56Z</time>
      </trkpt>
      <trkpt lat="43.52932" lon="3.52048">
        <ele>74</ele>
        <time>2016-04-22T14:26:57Z</time>
      </trkpt>
      <trkpt lat="43.52929" lon="3.52062">
        <ele>72</ele>
        <time>2016-04-22T14:27:00Z</time>
      </trkpt>
      <trkpt lat="43.52928" lon="3.52067">
        <ele>71</ele>
        <time>2016-04-22T14:27:01Z</time>
      </trkpt>
      <trkpt lat="43.52922" lon="3.52094">
        <ele>74</ele>
        <time>2016-04-22T14:27:08Z</time>
      </trkpt>
      <trkpt lat="43.52924" lon="3.52117">
        <ele>72</ele>
        <time>2016-04-22T14:27:13Z</time>
      </trkpt>
      <trkpt lat="43.52924" lon="3.52154">
        <ele>69</ele>
        <time>2016-04-22T14:27:22Z</time>
      </trkpt>
      <trkpt lat="43.52924" lon="3.52158">
        <ele>69</ele>
        <time>2016-04-22T14:27:23Z</time>
      </trkpt>
      <trkpt lat="43.52923" lon="3.52166">
        <ele>69</ele>
        <time>2016-04-22T14:27:25Z</time>
      </trkpt>
      <trkpt lat="43.52924" lon="3.5218">
        <ele>69</ele>
        <time>2016-04-22T14:27:29Z</time>
      </trkpt>
      <trkpt lat="43.52905" lon="3.52242">
        <ele>77</ele>
        <time>2016-04-22T14:27:46Z</time>
      </trkpt>
      <trkpt lat="43.52904" lon="3.52249">
        <ele>76</ele>
        <time>2016-04-22T14:27:48Z</time>
      </trkpt>
      <trkpt lat="43.52902" lon="3.52253">
        <ele>76</ele>
        <time>2016-04-22T14:27:49Z</time>
      </trkpt>
      <trkpt lat="43.529" lon="3.52256">
        <ele>76</ele>
        <time>2016-04-22T14:27:50Z</time>
      </trkpt>
      <trkpt lat="43.52899" lon="3.52259">
        <ele>76</ele>
        <time>2016-04-22T14:27:51Z</time>
      </trkpt>
      <trkpt lat="43.52894" lon="3.52269">
        <ele>76</ele>
        <time>2016-04-22T14:27:54Z</time>
      </trkpt>
      <trkpt lat="43.52888" lon="3.5229">
        <ele>75</ele>
        <time>2016-04-22T14:27:59Z</time>
      </trkpt>
      <trkpt lat="43.52886" lon="3.52293">
        <ele>75</ele>
        <time>2016-04-22T14:28:00Z</time>
      </trkpt>
      <trkpt lat="43.52884" lon="3.52298">
        <ele>75</ele>
        <time>2016-04-22T14:28:02Z</time>
      </trkpt>
      <trkpt lat="43.52885" lon="3.52304">
        <ele>74</ele>
        <time>2016-04-22T14:28:04Z</time>
      </trkpt>
      <trkpt lat="43.52888" lon="3.52309">
        <ele>75</ele>
        <time>2016-04-22T14:28:06Z</time>
      </trkpt>
      <trkpt lat="43.52894" lon="3.52314">
        <ele>75</ele>
        <time>2016-04-22T14:28:09Z</time>
      </trkpt>
      <trkpt lat="43.52908" lon="3.52321">
        <ele>78</ele>
        <time>2016-04-22T14:28:14Z</time>
      </trkpt>
      <trkpt lat="43.5291" lon="3.52322">
        <ele>78</ele>
        <time>2016-04-22T14:28:15Z</time>
      </trkpt>
      <trkpt lat="43.52913" lon="3.52323">
        <ele>78</ele>
        <time>2016-04-22T14:28:16Z</time>
      </trkpt>
      <trkpt lat="43.52931" lon="3.52337">
        <ele>83</ele>
        <time>2016-04-22T14:28:24Z</time>
      </trkpt>
      <trkpt lat="43.52933" lon="3.52339">
        <ele>83</ele>
        <time>2016-04-22T14:28:25Z</time>
      </trkpt>
      <trkpt lat="43.52935" lon="3.52341">
        <ele>83</ele>
        <time>2016-04-22T14:28:26Z</time>
      </trkpt>
      <trkpt lat="43.52944" lon="3.52356">
        <ele>86</ele>
        <time>2016-04-22T14:28:31Z</time>
      </trkpt>
      <trkpt lat="43.52944" lon="3.5236">
        <ele>86</ele>
        <time>2016-04-22T14:28:32Z</time>
      </trkpt>
      <trkpt lat="43.52944" lon="3.52363">
        <ele>86</ele>
        <time>2016-04-22T14:28:33Z</time>
      </trkpt>
      <trkpt lat="43.52945" lon="3.52366">
        <ele>86</ele>
        <time>2016-04-22T14:28:34Z</time>
      </trkpt>
      <trkpt lat="43.52946" lon="3.52372">
        <ele>86</ele>
        <time>2016-04-22T14:28:36Z</time>
      </trkpt>
      <trkpt lat="43.52948" lon="3.52376">
        <ele>86</ele>
        <time>2016-04-22T14:28:38Z</time>
      </trkpt>
      <trkpt lat="43.52951" lon="3.52377">
        <ele>86</ele>
        <time>2016-04-22T14:28:41Z</time>
      </trkpt>
      <trkpt lat="43.5295" lon="3.52369">
        <ele>87</ele>
        <time>2016-04-22T14:28:45Z</time>
      </trkpt>
      <trkpt lat="43.52954" lon="3.52368">
        <ele>88</ele>
        <time>2016-04-22T14:29:01Z</time>
      </trkpt>
      <trkpt lat="43.52976" lon="3.52399">
        <ele>87</ele>
        <time>2016-04-22T14:29:17Z</time>
      </trkpt>
      <trkpt lat="43.5303" lon="3.5248">
        <ele>96</ele>
        <time>2016-04-22T14:29:48Z</time>
      </trkpt>
      <trkpt lat="43.53034" lon="3.52485">
        <ele>96</ele>
        <time>2016-04-22T14:29:50Z</time>
      </trkpt>
      <trkpt lat="43.53047" lon="3.52506">
        <ele>95</ele>
        <time>2016-04-22T14:29:58Z</time>
      </trkpt>
      <trkpt lat="43.53051" lon="3.52513">
        <ele>96</ele>
        <time>2016-04-22T14:30:01Z</time>
      </trkpt>
      <trkpt lat="43.53052" lon="3.52515">
        <ele>96</ele>
        <time>2016-04-22T14:30:02Z</time>
      </trkpt>
      <trkpt lat="43.53064" lon="3.52535">
        <ele>96</ele>
        <time>2016-04-22T14:30:12Z</time>
      </trkpt>
      <trkpt lat="43.53067" lon="3.52538">
        <ele>96</ele>
        <time>2016-04-22T14:30:14Z</time>
      </trkpt>
      <trkpt lat="43.53072" lon="3.52547">
        <ele>96</ele>
        <time>2016-04-22T14:30:18Z</time>
      </trkpt>
      <trkpt lat="43.53074" lon="3.52554">
        <ele>96</ele>
        <time>2016-04-22T14:30:21Z</time>
      </trkpt>
      <trkpt lat="43.53081" lon="3.52568">
        <ele>96</ele>
        <time>2016-04-22T14:30:27Z</time>
      </trkpt>
      <trkpt lat="43.53097" lon="3.5259">
        <ele>99</ele>
        <time>2016-04-22T14:30:36Z</time>
      </trkpt>
      <trkpt lat="43.531" lon="3.52593">
        <ele>99</ele>
        <time>2016-04-22T14:30:38Z</time>
      </trkpt>
      <trkpt lat="43.53108" lon="3.52595">
        <ele>103</ele>
        <time>2016-04-22T14:30:40Z</time>
      </trkpt>
      <trkpt lat="43.53134" lon="3.52651">
        <ele>110</ele>
        <time>2016-04-22T14:31:02Z</time>
      </trkpt>
      <trkpt lat="43.5313" lon="3.5265">
        <ele>109</ele>
        <time>2016-04-22T14:31:11Z</time>
      </trkpt>
      <trkpt lat="43.53131" lon="3.52658">
        <ele>107</ele>
        <time>2016-04-22T14:31:30Z</time>
      </trkpt>
      <trkpt lat="43.5314" lon="3.52694">
        <ele>103</ele>
        <time>2016-04-22T14:31:44Z</time>
      </trkpt>
      <trkpt lat="43.53142" lon="3.527">
        <ele>104</ele>
        <time>2016-04-22T14:31:46Z</time>
      </trkpt>
      <trkpt lat="43.53145" lon="3.52708">
        <ele>105</ele>
        <time>2016-04-22T14:31:49Z</time>
      </trkpt>
      <trkpt lat="43.53146" lon="3.5271">
        <ele>105</ele>
        <time>2016-04-22T14:31:50Z</time>
      </trkpt>
      <trkpt lat="43.53163" lon="3.52758">
        <ele>113</ele>
        <time>2016-04-22T14:32:03Z</time>
      </trkpt>
      <trkpt lat="43.53167" lon="3.52763">
        <ele>113</ele>
        <time>2016-04-22T14:32:05Z</time>
      </trkpt>
      <trkpt lat="43.53172" lon="3.52773">
        <ele>111</ele>
        <time>2016-04-22T14:32:09Z</time>
      </trkpt>
      <trkpt lat="43.53174" lon="3.52778">
        <ele>111</ele>
        <time>2016-04-22T14:32:11Z</time>
      </trkpt>
      <trkpt lat="43.53171" lon="3.52783">
        <ele>110</ele>
        <time>2016-04-22T14:32:14Z</time>
      </trkpt>
      <trkpt lat="43.53167" lon="3.52787">
        <ele>110</ele>
        <time>2016-04-22T14:32:16Z</time>
      </trkpt>
      <trkpt lat="43.53158" lon="3.5279">
        <ele>109</ele>
        <time>2016-04-22T14:32:19Z</time>
      </trkpt>
      <trkpt lat="43.53147" lon="3.52791">
        <ele>109</ele>
        <time>2016-04-22T14:32:22Z</time>
      </trkpt>
      <trkpt lat="43.53139" lon="3.52793">
        <ele>109</ele>
        <time>2016-04-22T14:32:25Z</time>
      </trkpt>
      <trkpt lat="43.53112" lon="3.52829">
        <ele>118</ele>
        <time>2016-04-22T14:32:38Z</time>
      </trkpt>
      <trkpt lat="43.53097" lon="3.52847">
        <ele>117</ele>
        <time>2016-04-22T14:32:43Z</time>
      </trkpt>
      <trkpt lat="43.53081" lon="3.52864">
        <ele>112</ele>
        <time>2016-04-22T14:32:48Z</time>
      </trkpt>
      <trkpt lat="43.53081" lon="3.52869">
        <ele>112</ele>
        <time>2016-04-22T14:32:49Z</time>
      </trkpt>
      <trkpt lat="43.53083" lon="3.52874">
        <ele>112</ele>
        <time>2016-04-22T14:32:50Z</time>
      </trkpt>
      <trkpt lat="43.53105" lon="3.52906">
        <ele>108</ele>
        <time>2016-04-22T14:32:57Z</time>
      </trkpt>
      <trkpt lat="43.5314" lon="3.52979">
        <ele>108</ele>
        <time>2016-04-22T14:33:16Z</time>
      </trkpt>
      <trkpt lat="43.53141" lon="3.52983">
        <ele>108</ele>
        <time>2016-04-22T14:33:17Z</time>
      </trkpt>
      <trkpt lat="43.53144" lon="3.52989">
        <ele>109</ele>
        <time>2016-04-22T14:33:19Z</time>
      </trkpt>
      <trkpt lat="43.53149" lon="3.53001">
        <ele>108</ele>
        <time>2016-04-22T14:33:23Z</time>
      </trkpt>
      <trkpt lat="43.5316" lon="3.5302">
        <ele>110</ele>
        <time>2016-04-22T14:33:30Z</time>
      </trkpt>
      <trkpt lat="43.53162" lon="3.53022">
        <ele>111</ele>
        <time>2016-04-22T14:33:32Z</time>
      </trkpt>
      <trkpt lat="43.53164" lon="3.53025">
        <ele>111</ele>
        <time>2016-04-22T14:33:35Z</time>
      </trkpt>
      <trkpt lat="43.53167" lon="3.53032">
        <ele>111</ele>
        <time>2016-04-22T14:33:39Z</time>
      </trkpt>
      <trkpt lat="43.53169" lon="3.53039">
        <ele>111</ele>
        <time>2016-04-22T14:33:41Z</time>
      </trkpt>
      <trkpt lat="43.53182" lon="3.5306">
        <ele>114</ele>
        <time>2016-04-22T14:33:48Z</time>
      </trkpt>
      <trkpt lat="43.53186" lon="3.53062">
        <ele>115</ele>
        <time>2016-04-22T14:33:50Z</time>
      </trkpt>
      <trkpt lat="43.53194" lon="3.53061">
        <ele>116</ele>
        <time>2016-04-22T14:33:54Z</time>
      </trkpt>
      <trkpt lat="43.53196" lon="3.53058">
        <ele>116</ele>
        <time>2016-04-22T14:33:55Z</time>
      </trkpt>
      <trkpt lat="43.532" lon="3.53057">
        <ele>116</ele>
        <time>2016-04-22T14:33:57Z</time>
      </trkpt>
      <trkpt lat="43.53196" lon="3.53048">
        <ele>113</ele>
        <time>2016-04-22T14:34:10Z</time>
      </trkpt>
      <trkpt lat="43.53194" lon="3.53045">
        <ele>114</ele>
        <time>2016-04-22T14:34:18Z</time>
      </trkpt>
      <trkpt lat="43.53191" lon="3.53049">
        <ele>114</ele>
        <time>2016-04-22T14:34:23Z</time>
      </trkpt>
    </trkseg>
  </trk>
</gpx>